<?xml version="1.0" encoding="UTF-8" standalone="no" ?>
<gpx xmlns="http://www.topografix.com/GPX/1/1" xmlns:xsi="http://www.w3.org/2001/XMLSchema-instance" xsi:schemaLocation="http://www.topografix.com/GPX/1/1 http://www.topografix.com/GPX/1/1/gpx.xsd" version="1.1" creator="VisuGPX - https://www.visugpx.com">
  <metadata>
    <name>Dondas - Sabré - 25 août 2017</name>
    <desc><![CDATA[Dondas - Sabré - 25 août 2017 -------------]]></desc>
  </metadata>
  <trk>
    <name><![CDATA[2017-08-25T09:12:21Z]]></name>
    <trkseg>
      <trkpt lat="44.21999" lon="0.84547">
        <ele>158.8</ele>
        <time>2017-08-25T09:12:22Z</time>
      </trkpt>
      <trkpt lat="44.21999" lon="0.84547">
        <ele>159.6</ele>
        <time>2017-08-25T09:12:25Z</time>
      </trkpt>
      <trkpt lat="44.22002" lon="0.8455">
        <ele>161.46</ele>
        <time>2017-08-25T09:12:31Z</time>
      </trkpt>
      <trkpt lat="44.22002" lon="0.8455">
        <ele>161.53</ele>
        <time>2017-08-25T09:12:32Z</time>
      </trkpt>
      <trkpt lat="44.22002" lon="0.84552">
        <ele>161.76</ele>
        <time>2017-08-25T09:12:34Z</time>
      </trkpt>
      <trkpt lat="44.21994" lon="0.84555">
        <ele>162.27</ele>
        <time>2017-08-25T09:12:41Z</time>
      </trkpt>
      <trkpt lat="44.21989" lon="0.84555">
        <ele>161.83</ele>
        <time>2017-08-25T09:12:45Z</time>
      </trkpt>
      <trkpt lat="44.21986" lon="0.8454">
        <ele>160.57</ele>
        <time>2017-08-25T09:12:53Z</time>
      </trkpt>
      <trkpt lat="44.21987" lon="0.84515">
        <ele>159.79</ele>
        <time>2017-08-25T09:13:00Z</time>
      </trkpt>
      <trkpt lat="44.21991" lon="0.84484">
        <ele>159.37</ele>
        <time>2017-08-25T09:13:09Z</time>
      </trkpt>
      <trkpt lat="44.21997" lon="0.84462">
        <ele>159.18</ele>
        <time>2017-08-25T09:13:16Z</time>
      </trkpt>
      <trkpt lat="44.22003" lon="0.84436">
        <ele>158.87</ele>
        <time>2017-08-25T09:13:24Z</time>
      </trkpt>
      <trkpt lat="44.22012" lon="0.84396">
        <ele>158.65</ele>
        <time>2017-08-25T09:13:34Z</time>
      </trkpt>
      <trkpt lat="44.22017" lon="0.84383">
        <ele>158.439</ele>
        <time>2017-08-25T09:13:37Z</time>
      </trkpt>
      <trkpt lat="44.22032" lon="0.84358">
        <ele>155.956</ele>
        <time>2017-08-25T09:13:41Z</time>
      </trkpt>
      <trkpt lat="44.22052" lon="0.84301">
        <ele>150.943</ele>
        <time>2017-08-25T09:13:46Z</time>
      </trkpt>
      <trkpt lat="44.22085" lon="0.84234">
        <ele>144.673</ele>
        <time>2017-08-25T09:13:51Z</time>
      </trkpt>
      <trkpt lat="44.22115" lon="0.84165">
        <ele>138.373</ele>
        <time>2017-08-25T09:13:56Z</time>
      </trkpt>
      <trkpt lat="44.22142" lon="0.84122">
        <ele>131.049</ele>
        <time>2017-08-25T09:14:00Z</time>
      </trkpt>
      <trkpt lat="44.22191" lon="0.84098">
        <ele>122.117</ele>
        <time>2017-08-25T09:14:04Z</time>
      </trkpt>
      <trkpt lat="44.22243" lon="0.84083">
        <ele>114.701</ele>
        <time>2017-08-25T09:14:08Z</time>
      </trkpt>
      <trkpt lat="44.22289" lon="0.84074">
        <ele>111.024</ele>
        <time>2017-08-25T09:14:12Z</time>
      </trkpt>
      <trkpt lat="44.22355" lon="0.84041">
        <ele>104.72</ele>
        <time>2017-08-25T09:14:18Z</time>
      </trkpt>
      <trkpt lat="44.22427" lon="0.84001">
        <ele>99.535</ele>
        <time>2017-08-25T09:14:24Z</time>
      </trkpt>
      <trkpt lat="44.2247" lon="0.83976">
        <ele>95.984</ele>
        <time>2017-08-25T09:14:28Z</time>
      </trkpt>
      <trkpt lat="44.22502" lon="0.83955">
        <ele>92.495</ele>
        <time>2017-08-25T09:14:32Z</time>
      </trkpt>
      <trkpt lat="44.22508" lon="0.83951">
        <ele>91.826</ele>
        <time>2017-08-25T09:14:33Z</time>
      </trkpt>
      <trkpt lat="44.22518" lon="0.83935">
        <ele>90.29</ele>
        <time>2017-08-25T09:14:37Z</time>
      </trkpt>
      <trkpt lat="44.22514" lon="0.83927">
        <ele>90.241</ele>
        <time>2017-08-25T09:14:39Z</time>
      </trkpt>
      <trkpt lat="44.22501" lon="0.83907">
        <ele>90.501</ele>
        <time>2017-08-25T09:14:44Z</time>
      </trkpt>
      <trkpt lat="44.22472" lon="0.83861">
        <ele>91.031</ele>
        <time>2017-08-25T09:14:54Z</time>
      </trkpt>
      <trkpt lat="44.22446" lon="0.83824">
        <ele>90.25</ele>
        <time>2017-08-25T09:15:02Z</time>
      </trkpt>
      <trkpt lat="44.22418" lon="0.83787">
        <ele>90.06</ele>
        <time>2017-08-25T09:15:09Z</time>
      </trkpt>
      <trkpt lat="44.22383" lon="0.83751">
        <ele>89.321</ele>
        <time>2017-08-25T09:15:16Z</time>
      </trkpt>
      <trkpt lat="44.22341" lon="0.83722">
        <ele>88.811</ele>
        <time>2017-08-25T09:15:24Z</time>
      </trkpt>
      <trkpt lat="44.22276" lon="0.83679">
        <ele>87.379</ele>
        <time>2017-08-25T09:15:37Z</time>
      </trkpt>
      <trkpt lat="44.22244" lon="0.83653">
        <ele>87.399</ele>
        <time>2017-08-25T09:15:44Z</time>
      </trkpt>
      <trkpt lat="44.22217" lon="0.83615">
        <ele>87.169</ele>
        <time>2017-08-25T09:15:51Z</time>
      </trkpt>
      <trkpt lat="44.22188" lon="0.83566">
        <ele>87</ele>
        <time>2017-08-25T09:15:59Z</time>
      </trkpt>
      <trkpt lat="44.22164" lon="0.83534">
        <ele>86.809</ele>
        <time>2017-08-25T09:16:05Z</time>
      </trkpt>
      <trkpt lat="44.22115" lon="0.83489">
        <ele>85.979</ele>
        <time>2017-08-25T09:16:16Z</time>
      </trkpt>
      <trkpt lat="44.22074" lon="0.83441">
        <ele>85.239</ele>
        <time>2017-08-25T09:16:26Z</time>
      </trkpt>
      <trkpt lat="44.22067" lon="0.83429">
        <ele>85.149</ele>
        <time>2017-08-25T09:16:28Z</time>
      </trkpt>
      <trkpt lat="44.22057" lon="0.83388">
        <ele>85.04</ele>
        <time>2017-08-25T09:16:34Z</time>
      </trkpt>
      <trkpt lat="44.22058" lon="0.83323">
        <ele>84.098</ele>
        <time>2017-08-25T09:16:43Z</time>
      </trkpt>
      <trkpt lat="44.22055" lon="0.83274">
        <ele>83.387</ele>
        <time>2017-08-25T09:16:50Z</time>
      </trkpt>
      <trkpt lat="44.22043" lon="0.83227">
        <ele>82.257</ele>
        <time>2017-08-25T09:16:57Z</time>
      </trkpt>
      <trkpt lat="44.22034" lon="0.8321">
        <ele>82.057</ele>
        <time>2017-08-25T09:17:00Z</time>
      </trkpt>
      <trkpt lat="44.22016" lon="0.83193">
        <ele>82.228</ele>
        <time>2017-08-25T09:17:04Z</time>
      </trkpt>
      <trkpt lat="44.21991" lon="0.83165">
        <ele>83.139</ele>
        <time>2017-08-25T09:17:10Z</time>
      </trkpt>
      <trkpt lat="44.21988" lon="0.83152">
        <ele>83.799</ele>
        <time>2017-08-25T09:17:12Z</time>
      </trkpt>
      <trkpt lat="44.21971" lon="0.831">
        <ele>86.889</ele>
        <time>2017-08-25T09:17:21Z</time>
      </trkpt>
      <trkpt lat="44.2195" lon="0.83062">
        <ele>88.799</ele>
        <time>2017-08-25T09:17:29Z</time>
      </trkpt>
      <trkpt lat="44.21938" lon="0.83042">
        <ele>89.218</ele>
        <time>2017-08-25T09:17:34Z</time>
      </trkpt>
      <trkpt lat="44.2191" lon="0.83004">
        <ele>87.715</ele>
        <time>2017-08-25T09:17:42Z</time>
      </trkpt>
      <trkpt lat="44.21894" lon="0.82965">
        <ele>86.104</ele>
        <time>2017-08-25T09:17:47Z</time>
      </trkpt>
      <trkpt lat="44.21885" lon="0.8294">
        <ele>85.535</ele>
        <time>2017-08-25T09:17:50Z</time>
      </trkpt>
      <trkpt lat="44.2186" lon="0.82888">
        <ele>84.006</ele>
        <time>2017-08-25T09:17:57Z</time>
      </trkpt>
      <trkpt lat="44.21825" lon="0.8283">
        <ele>83.797</ele>
        <time>2017-08-25T09:18:06Z</time>
      </trkpt>
      <trkpt lat="44.21798" lon="0.82791">
        <ele>84.087</ele>
        <time>2017-08-25T09:18:13Z</time>
      </trkpt>
      <trkpt lat="44.21764" lon="0.82749">
        <ele>84.286</ele>
        <time>2017-08-25T09:18:22Z</time>
      </trkpt>
      <trkpt lat="44.2173" lon="0.82705">
        <ele>83.476</ele>
        <time>2017-08-25T09:18:31Z</time>
      </trkpt>
      <trkpt lat="44.21699" lon="0.82655">
        <ele>83.435</ele>
        <time>2017-08-25T09:18:40Z</time>
      </trkpt>
      <trkpt lat="44.21664" lon="0.82592">
        <ele>82.474</ele>
        <time>2017-08-25T09:18:50Z</time>
      </trkpt>
      <trkpt lat="44.21637" lon="0.82534">
        <ele>81.204</ele>
        <time>2017-08-25T09:18:58Z</time>
      </trkpt>
      <trkpt lat="44.21613" lon="0.82465">
        <ele>80.204</ele>
        <time>2017-08-25T09:19:07Z</time>
      </trkpt>
      <trkpt lat="44.21595" lon="0.82413">
        <ele>81.345</ele>
        <time>2017-08-25T09:19:14Z</time>
      </trkpt>
      <trkpt lat="44.2157" lon="0.82339">
        <ele>82.805</ele>
        <time>2017-08-25T09:19:24Z</time>
      </trkpt>
      <trkpt lat="44.21548" lon="0.82268">
        <ele>83.034</ele>
        <time>2017-08-25T09:19:34Z</time>
      </trkpt>
      <trkpt lat="44.21525" lon="0.82189">
        <ele>80.252</ele>
        <time>2017-08-25T09:19:45Z</time>
      </trkpt>
      <trkpt lat="44.21511" lon="0.82156">
        <ele>79.683</ele>
        <time>2017-08-25T09:19:50Z</time>
      </trkpt>
      <trkpt lat="44.21481" lon="0.82124">
        <ele>79.934</ele>
        <time>2017-08-25T09:19:57Z</time>
      </trkpt>
      <trkpt lat="44.21453" lon="0.82092">
        <ele>80.013</ele>
        <time>2017-08-25T09:20:04Z</time>
      </trkpt>
      <trkpt lat="44.21433" lon="0.82047">
        <ele>79.143</ele>
        <time>2017-08-25T09:20:11Z</time>
      </trkpt>
      <trkpt lat="44.21403" lon="0.81971">
        <ele>78.443</ele>
        <time>2017-08-25T09:20:22Z</time>
      </trkpt>
      <trkpt lat="44.21381" lon="0.81934">
        <ele>78.393</ele>
        <time>2017-08-25T09:20:28Z</time>
      </trkpt>
      <trkpt lat="44.21341" lon="0.81878">
        <ele>78.393</ele>
        <time>2017-08-25T09:20:38Z</time>
      </trkpt>
      <trkpt lat="44.21293" lon="0.81818">
        <ele>78.633</ele>
        <time>2017-08-25T09:20:50Z</time>
      </trkpt>
      <trkpt lat="44.21243" lon="0.81752">
        <ele>79.262</ele>
        <time>2017-08-25T09:21:03Z</time>
      </trkpt>
      <trkpt lat="44.21197" lon="0.81689">
        <ele>79.282</ele>
        <time>2017-08-25T09:21:15Z</time>
      </trkpt>
      <trkpt lat="44.21163" lon="0.81641">
        <ele>79.091</ele>
        <time>2017-08-25T09:21:24Z</time>
      </trkpt>
      <trkpt lat="44.21138" lon="0.81593">
        <ele>78.161</ele>
        <time>2017-08-25T09:21:32Z</time>
      </trkpt>
      <trkpt lat="44.21117" lon="0.81531">
        <ele>76.941</ele>
        <time>2017-08-25T09:21:41Z</time>
      </trkpt>
      <trkpt lat="44.21108" lon="0.8147">
        <ele>76.3</ele>
        <time>2017-08-25T09:21:49Z</time>
      </trkpt>
      <trkpt lat="44.21097" lon="0.81403">
        <ele>75.4</ele>
        <time>2017-08-25T09:21:58Z</time>
      </trkpt>
      <trkpt lat="44.21084" lon="0.81342">
        <ele>74.859</ele>
        <time>2017-08-25T09:22:07Z</time>
      </trkpt>
      <trkpt lat="44.2108" lon="0.81288">
        <ele>74.009</ele>
        <time>2017-08-25T09:22:14Z</time>
      </trkpt>
      <trkpt lat="44.21067" lon="0.81228">
        <ele>73.4</ele>
        <time>2017-08-25T09:22:22Z</time>
      </trkpt>
      <trkpt lat="44.21042" lon="0.81178">
        <ele>73.36</ele>
        <time>2017-08-25T09:22:30Z</time>
      </trkpt>
      <trkpt lat="44.21014" lon="0.8112">
        <ele>73.1</ele>
        <time>2017-08-25T09:22:39Z</time>
      </trkpt>
      <trkpt lat="44.21002" lon="0.81088">
        <ele>72.338</ele>
        <time>2017-08-25T09:22:44Z</time>
      </trkpt>
      <trkpt lat="44.20999" lon="0.8108">
        <ele>72.469</ele>
        <time>2017-08-25T09:22:45Z</time>
      </trkpt>
      <trkpt lat="44.20995" lon="0.81067">
        <ele>72.709</ele>
        <time>2017-08-25T09:22:49Z</time>
      </trkpt>
      <trkpt lat="44.20996" lon="0.81065">
        <ele>74.739</ele>
        <time>2017-08-25T09:22:58Z</time>
      </trkpt>
      <trkpt lat="44.20994" lon="0.8106">
        <ele>74.738</ele>
        <time>2017-08-25T09:23:25Z</time>
      </trkpt>
      <trkpt lat="44.20986" lon="0.81042">
        <ele>76.279</ele>
        <time>2017-08-25T09:23:30Z</time>
      </trkpt>
      <trkpt lat="44.20973" lon="0.81008">
        <ele>76.778</ele>
        <time>2017-08-25T09:23:37Z</time>
      </trkpt>
      <trkpt lat="44.20953" lon="0.8097">
        <ele>77.718</ele>
        <time>2017-08-25T09:23:44Z</time>
      </trkpt>
      <trkpt lat="44.20925" lon="0.80937">
        <ele>78.338</ele>
        <time>2017-08-25T09:23:51Z</time>
      </trkpt>
      <trkpt lat="44.20878" lon="0.80882">
        <ele>78.538</ele>
        <time>2017-08-25T09:24:02Z</time>
      </trkpt>
      <trkpt lat="44.20826" lon="0.80826">
        <ele>78.018</ele>
        <time>2017-08-25T09:24:14Z</time>
      </trkpt>
      <trkpt lat="44.20766" lon="0.80776">
        <ele>77.018</ele>
        <time>2017-08-25T09:24:27Z</time>
      </trkpt>
      <trkpt lat="44.20723" lon="0.80734">
        <ele>76.658</ele>
        <time>2017-08-25T09:24:37Z</time>
      </trkpt>
      <trkpt lat="44.20693" lon="0.80698">
        <ele>76.407</ele>
        <time>2017-08-25T09:24:45Z</time>
      </trkpt>
      <trkpt lat="44.20664" lon="0.80648">
        <ele>76.857</ele>
        <time>2017-08-25T09:24:55Z</time>
      </trkpt>
      <trkpt lat="44.20643" lon="0.80602">
        <ele>76.056</ele>
        <time>2017-08-25T09:25:03Z</time>
      </trkpt>
      <trkpt lat="44.20631" lon="0.80574">
        <ele>75.446</ele>
        <time>2017-08-25T09:25:07Z</time>
      </trkpt>
      <trkpt lat="44.20609" lon="0.80549">
        <ele>75.447</ele>
        <time>2017-08-25T09:25:12Z</time>
      </trkpt>
      <trkpt lat="44.20559" lon="0.80523">
        <ele>75.397</ele>
        <time>2017-08-25T09:25:22Z</time>
      </trkpt>
      <trkpt lat="44.20508" lon="0.80498">
        <ele>75.617</ele>
        <time>2017-08-25T09:25:33Z</time>
      </trkpt>
      <trkpt lat="44.2046" lon="0.80474">
        <ele>75.247</ele>
        <time>2017-08-25T09:25:43Z</time>
      </trkpt>
      <trkpt lat="44.20412" lon="0.80451">
        <ele>75.866</ele>
        <time>2017-08-25T09:25:53Z</time>
      </trkpt>
      <trkpt lat="44.20371" lon="0.80426">
        <ele>76.326</ele>
        <time>2017-08-25T09:26:02Z</time>
      </trkpt>
      <trkpt lat="44.20341" lon="0.80394">
        <ele>76.555</ele>
        <time>2017-08-25T09:26:10Z</time>
      </trkpt>
      <trkpt lat="44.20308" lon="0.80358">
        <ele>76.955</ele>
        <time>2017-08-25T09:26:19Z</time>
      </trkpt>
      <trkpt lat="44.2029" lon="0.80344">
        <ele>77.365</ele>
        <time>2017-08-25T09:26:25Z</time>
      </trkpt>
      <trkpt lat="44.20268" lon="0.80335">
        <ele>76.854</ele>
        <time>2017-08-25T09:26:32Z</time>
      </trkpt>
      <trkpt lat="44.20227" lon="0.80321">
        <ele>75.624</ele>
        <time>2017-08-25T09:26:42Z</time>
      </trkpt>
      <trkpt lat="44.2019" lon="0.8031">
        <ele>74.363</ele>
        <time>2017-08-25T09:26:49Z</time>
      </trkpt>
      <trkpt lat="44.20141" lon="0.80296">
        <ele>73.013</ele>
        <time>2017-08-25T09:26:57Z</time>
      </trkpt>
      <trkpt lat="44.20082" lon="0.80277">
        <ele>72.344</ele>
        <time>2017-08-25T09:27:07Z</time>
      </trkpt>
      <trkpt lat="44.20038" lon="0.80257">
        <ele>72.394</ele>
        <time>2017-08-25T09:27:16Z</time>
      </trkpt>
      <trkpt lat="44.20006" lon="0.80239">
        <ele>73.484</ele>
        <time>2017-08-25T09:27:24Z</time>
      </trkpt>
      <trkpt lat="44.19972" lon="0.80216">
        <ele>72.831</ele>
        <time>2017-08-25T09:27:32Z</time>
      </trkpt>
      <trkpt lat="44.19939" lon="0.802">
        <ele>71.092</ele>
        <time>2017-08-25T09:27:38Z</time>
      </trkpt>
      <trkpt lat="44.19879" lon="0.80183">
        <ele>68.703</ele>
        <time>2017-08-25T09:27:47Z</time>
      </trkpt>
      <trkpt lat="44.19819" lon="0.80169">
        <ele>67.351</ele>
        <time>2017-08-25T09:27:56Z</time>
      </trkpt>
      <trkpt lat="44.19774" lon="0.80163">
        <ele>66.722</ele>
        <time>2017-08-25T09:28:03Z</time>
      </trkpt>
      <trkpt lat="44.19728" lon="0.80158">
        <ele>66.142</ele>
        <time>2017-08-25T09:28:11Z</time>
      </trkpt>
      <trkpt lat="44.19671" lon="0.80165">
        <ele>65.572</ele>
        <time>2017-08-25T09:28:21Z</time>
      </trkpt>
      <trkpt lat="44.19661" lon="0.80167">
        <ele>65.432</ele>
        <time>2017-08-25T09:28:24Z</time>
      </trkpt>
      <trkpt lat="44.19656" lon="0.80169">
        <ele>65.392</ele>
        <time>2017-08-25T09:28:26Z</time>
      </trkpt>
      <trkpt lat="44.19642" lon="0.8019">
        <ele>65.262</ele>
        <time>2017-08-25T09:28:33Z</time>
      </trkpt>
      <trkpt lat="44.19639" lon="0.80201">
        <ele>65.142</ele>
        <time>2017-08-25T09:28:37Z</time>
      </trkpt>
      <trkpt lat="44.19637" lon="0.80204">
        <ele>65.162</ele>
        <time>2017-08-25T09:28:39Z</time>
      </trkpt>
      <trkpt lat="44.19631" lon="0.80203">
        <ele>64.982</ele>
        <time>2017-08-25T09:28:44Z</time>
      </trkpt>
      <trkpt lat="44.1962" lon="0.80196">
        <ele>65.091</ele>
        <time>2017-08-25T09:28:51Z</time>
      </trkpt>
      <trkpt lat="44.19601" lon="0.80191">
        <ele>65.111</ele>
        <time>2017-08-25T09:28:59Z</time>
      </trkpt>
      <trkpt lat="44.19582" lon="0.80191">
        <ele>65.06</ele>
        <time>2017-08-25T09:29:06Z</time>
      </trkpt>
      <trkpt lat="44.19552" lon="0.80192">
        <ele>64.481</ele>
        <time>2017-08-25T09:29:14Z</time>
      </trkpt>
      <trkpt lat="44.19519" lon="0.80193">
        <ele>64.261</ele>
        <time>2017-08-25T09:29:23Z</time>
      </trkpt>
      <trkpt lat="44.19493" lon="0.80193">
        <ele>63.92</ele>
        <time>2017-08-25T09:29:30Z</time>
      </trkpt>
      <trkpt lat="44.1946" lon="0.80196">
        <ele>64.331</ele>
        <time>2017-08-25T09:29:38Z</time>
      </trkpt>
      <trkpt lat="44.1942" lon="0.80197">
        <ele>64.361</ele>
        <time>2017-08-25T09:29:48Z</time>
      </trkpt>
      <trkpt lat="44.19381" lon="0.80199">
        <ele>64.36</ele>
        <time>2017-08-25T09:29:57Z</time>
      </trkpt>
      <trkpt lat="44.19334" lon="0.802">
        <ele>64.12</ele>
        <time>2017-08-25T09:30:07Z</time>
      </trkpt>
      <trkpt lat="44.19294" lon="0.80202">
        <ele>64.73</ele>
        <time>2017-08-25T09:30:16Z</time>
      </trkpt>
      <trkpt lat="44.19247" lon="0.80203">
        <ele>65.641</ele>
        <time>2017-08-25T09:30:27Z</time>
      </trkpt>
      <trkpt lat="44.19209" lon="0.80205">
        <ele>66.289</ele>
        <time>2017-08-25T09:30:37Z</time>
      </trkpt>
      <trkpt lat="44.19169" lon="0.80207">
        <ele>65.429</ele>
        <time>2017-08-25T09:30:45Z</time>
      </trkpt>
      <trkpt lat="44.19132" lon="0.80208">
        <ele>65.929</ele>
        <time>2017-08-25T09:30:53Z</time>
      </trkpt>
      <trkpt lat="44.19101" lon="0.80206">
        <ele>66.749</ele>
        <time>2017-08-25T09:31:01Z</time>
      </trkpt>
      <trkpt lat="44.19076" lon="0.80195">
        <ele>67.72</ele>
        <time>2017-08-25T09:31:09Z</time>
      </trkpt>
      <trkpt lat="44.19056" lon="0.80176">
        <ele>69.29</ele>
        <time>2017-08-25T09:31:18Z</time>
      </trkpt>
      <trkpt lat="44.19042" lon="0.80153">
        <ele>70.689</ele>
        <time>2017-08-25T09:31:27Z</time>
      </trkpt>
      <trkpt lat="44.19032" lon="0.80124">
        <ele>71.749</ele>
        <time>2017-08-25T09:31:36Z</time>
      </trkpt>
      <trkpt lat="44.19026" lon="0.80095">
        <ele>72.33</ele>
        <time>2017-08-25T09:31:45Z</time>
      </trkpt>
      <trkpt lat="44.19018" lon="0.80065">
        <ele>74.129</ele>
        <time>2017-08-25T09:31:54Z</time>
      </trkpt>
      <trkpt lat="44.19009" lon="0.80024">
        <ele>76.429</ele>
        <time>2017-08-25T09:32:06Z</time>
      </trkpt>
      <trkpt lat="44.18999" lon="0.79981">
        <ele>78.569</ele>
        <time>2017-08-25T09:32:19Z</time>
      </trkpt>
      <trkpt lat="44.18991" lon="0.79939">
        <ele>80.259</ele>
        <time>2017-08-25T09:32:32Z</time>
      </trkpt>
      <trkpt lat="44.18987" lon="0.79913">
        <ele>81.629</ele>
        <time>2017-08-25T09:32:40Z</time>
      </trkpt>
      <trkpt lat="44.18984" lon="0.79884">
        <ele>83.279</ele>
        <time>2017-08-25T09:32:49Z</time>
      </trkpt>
      <trkpt lat="44.18981" lon="0.79851">
        <ele>84.728</ele>
        <time>2017-08-25T09:32:59Z</time>
      </trkpt>
      <trkpt lat="44.1898" lon="0.79829">
        <ele>84.697</ele>
        <time>2017-08-25T09:33:06Z</time>
      </trkpt>
      <trkpt lat="44.18979" lon="0.79811">
        <ele>85.798</ele>
        <time>2017-08-25T09:33:12Z</time>
      </trkpt>
      <trkpt lat="44.18977" lon="0.79784">
        <ele>87.598</ele>
        <time>2017-08-25T09:33:21Z</time>
      </trkpt>
      <trkpt lat="44.18974" lon="0.79759">
        <ele>89.278</ele>
        <time>2017-08-25T09:33:29Z</time>
      </trkpt>
      <trkpt lat="44.18969" lon="0.79734">
        <ele>90.097</ele>
        <time>2017-08-25T09:33:37Z</time>
      </trkpt>
      <trkpt lat="44.18961" lon="0.79702">
        <ele>92.928</ele>
        <time>2017-08-25T09:33:47Z</time>
      </trkpt>
      <trkpt lat="44.18955" lon="0.79681">
        <ele>94.517</ele>
        <time>2017-08-25T09:33:54Z</time>
      </trkpt>
      <trkpt lat="44.18947" lon="0.79659">
        <ele>96.507</ele>
        <time>2017-08-25T09:34:01Z</time>
      </trkpt>
      <trkpt lat="44.18941" lon="0.79632">
        <ele>97.607</ele>
        <time>2017-08-25T09:34:09Z</time>
      </trkpt>
      <trkpt lat="44.18936" lon="0.79598">
        <ele>97.798</ele>
        <time>2017-08-25T09:34:19Z</time>
      </trkpt>
      <trkpt lat="44.18933" lon="0.79562">
        <ele>97.257</ele>
        <time>2017-08-25T09:34:30Z</time>
      </trkpt>
      <trkpt lat="44.18934" lon="0.79532">
        <ele>97.527</ele>
        <time>2017-08-25T09:34:39Z</time>
      </trkpt>
      <trkpt lat="44.18935" lon="0.79496">
        <ele>99.248</ele>
        <time>2017-08-25T09:34:50Z</time>
      </trkpt>
      <trkpt lat="44.18935" lon="0.79471">
        <ele>100.557</ele>
        <time>2017-08-25T09:34:58Z</time>
      </trkpt>
      <trkpt lat="44.18933" lon="0.79437">
        <ele>101.317</ele>
        <time>2017-08-25T09:35:08Z</time>
      </trkpt>
      <trkpt lat="44.18925" lon="0.79388">
        <ele>102.257</ele>
        <time>2017-08-25T09:35:22Z</time>
      </trkpt>
      <trkpt lat="44.1892" lon="0.79355">
        <ele>102.947</ele>
        <time>2017-08-25T09:35:32Z</time>
      </trkpt>
      <trkpt lat="44.18914" lon="0.79317">
        <ele>103.637</ele>
        <time>2017-08-25T09:35:43Z</time>
      </trkpt>
      <trkpt lat="44.18907" lon="0.79282">
        <ele>103.586</ele>
        <time>2017-08-25T09:35:52Z</time>
      </trkpt>
      <trkpt lat="44.18897" lon="0.79231">
        <ele>101.764</ele>
        <time>2017-08-25T09:36:04Z</time>
      </trkpt>
      <trkpt lat="44.18886" lon="0.79193">
        <ele>101.915</ele>
        <time>2017-08-25T09:36:13Z</time>
      </trkpt>
      <trkpt lat="44.18872" lon="0.7916">
        <ele>101.125</ele>
        <time>2017-08-25T09:36:21Z</time>
      </trkpt>
      <trkpt lat="44.1885" lon="0.79115">
        <ele>99.245</ele>
        <time>2017-08-25T09:36:31Z</time>
      </trkpt>
      <trkpt lat="44.18834" lon="0.79083">
        <ele>99.496</ele>
        <time>2017-08-25T09:36:38Z</time>
      </trkpt>
      <trkpt lat="44.18813" lon="0.79059">
        <ele>100.986</ele>
        <time>2017-08-25T09:36:45Z</time>
      </trkpt>
      <trkpt lat="44.18791" lon="0.79053">
        <ele>102.076</ele>
        <time>2017-08-25T09:36:51Z</time>
      </trkpt>
      <trkpt lat="44.18763" lon="0.79055">
        <ele>102.785</ele>
        <time>2017-08-25T09:36:59Z</time>
      </trkpt>
      <trkpt lat="44.18737" lon="0.79051">
        <ele>103.615</ele>
        <time>2017-08-25T09:37:07Z</time>
      </trkpt>
      <trkpt lat="44.18722" lon="0.79052">
        <ele>103.985</ele>
        <time>2017-08-25T09:37:12Z</time>
      </trkpt>
      <trkpt lat="44.18707" lon="0.79075">
        <ele>105.476</ele>
        <time>2017-08-25T09:37:20Z</time>
      </trkpt>
      <trkpt lat="44.1869" lon="0.79089">
        <ele>107.857</ele>
        <time>2017-08-25T09:37:28Z</time>
      </trkpt>
      <trkpt lat="44.18673" lon="0.79099">
        <ele>109.766</ele>
        <time>2017-08-25T09:37:36Z</time>
      </trkpt>
      <trkpt lat="44.18653" lon="0.7911">
        <ele>111.896</ele>
        <time>2017-08-25T09:37:46Z</time>
      </trkpt>
      <trkpt lat="44.18634" lon="0.79123">
        <ele>114.126</ele>
        <time>2017-08-25T09:37:56Z</time>
      </trkpt>
      <trkpt lat="44.18619" lon="0.79135">
        <ele>116.576</ele>
        <time>2017-08-25T09:38:05Z</time>
      </trkpt>
      <trkpt lat="44.18615" lon="0.7914">
        <ele>117.155</ele>
        <time>2017-08-25T09:38:11Z</time>
      </trkpt>
      <trkpt lat="44.18617" lon="0.79149">
        <ele>118.056</ele>
        <time>2017-08-25T09:38:16Z</time>
      </trkpt>
      <trkpt lat="44.18621" lon="0.79151">
        <ele>118.627</ele>
        <time>2017-08-25T09:38:18Z</time>
      </trkpt>
      <trkpt lat="44.18636" lon="0.79151">
        <ele>120.636</ele>
        <time>2017-08-25T09:38:27Z</time>
      </trkpt>
      <trkpt lat="44.18647" lon="0.79148">
        <ele>126.967</ele>
        <time>2017-08-25T09:38:37Z</time>
      </trkpt>
      <trkpt lat="44.1866" lon="0.79151">
        <ele>126.396</ele>
        <time>2017-08-25T09:38:47Z</time>
      </trkpt>
      <trkpt lat="44.18668" lon="0.79154">
        <ele>129.447</ele>
        <time>2017-08-25T09:38:55Z</time>
      </trkpt>
      <trkpt lat="44.18677" lon="0.79158">
        <ele>131.317</ele>
        <time>2017-08-25T09:39:04Z</time>
      </trkpt>
      <trkpt lat="44.18689" lon="0.79164">
        <ele>133.707</ele>
        <time>2017-08-25T09:39:15Z</time>
      </trkpt>
      <trkpt lat="44.18696" lon="0.79165">
        <ele>139.537</ele>
        <time>2017-08-25T09:39:23Z</time>
      </trkpt>
      <trkpt lat="44.18707" lon="0.79172">
        <ele>139.736</ele>
        <time>2017-08-25T09:39:34Z</time>
      </trkpt>
      <trkpt lat="44.18715" lon="0.79176">
        <ele>141.036</ele>
        <time>2017-08-25T09:39:42Z</time>
      </trkpt>
      <trkpt lat="44.18726" lon="0.79176">
        <ele>145.797</ele>
        <time>2017-08-25T09:39:52Z</time>
      </trkpt>
      <trkpt lat="44.18742" lon="0.79173">
        <ele>146.037</ele>
        <time>2017-08-25T09:40:05Z</time>
      </trkpt>
      <trkpt lat="44.18755" lon="0.79171">
        <ele>145.946</ele>
        <time>2017-08-25T09:40:15Z</time>
      </trkpt>
      <trkpt lat="44.18757" lon="0.79172">
        <ele>145.396</ele>
        <time>2017-08-25T09:40:16Z</time>
      </trkpt>
      <trkpt lat="44.1876" lon="0.79177">
        <ele>145.627</ele>
        <time>2017-08-25T09:40:20Z</time>
      </trkpt>
      <trkpt lat="44.18761" lon="0.79197">
        <ele>148.267</ele>
        <time>2017-08-25T09:40:31Z</time>
      </trkpt>
      <trkpt lat="44.18765" lon="0.79214">
        <ele>148.426</ele>
        <time>2017-08-25T09:40:41Z</time>
      </trkpt>
      <trkpt lat="44.18767" lon="0.79224">
        <ele>150.888</ele>
        <time>2017-08-25T09:40:47Z</time>
      </trkpt>
      <trkpt lat="44.1877" lon="0.7924">
        <ele>152.285</ele>
        <time>2017-08-25T09:40:55Z</time>
      </trkpt>
      <trkpt lat="44.18771" lon="0.79253">
        <ele>152.656</ele>
        <time>2017-08-25T09:41:01Z</time>
      </trkpt>
      <trkpt lat="44.18772" lon="0.79259">
        <ele>152.806</ele>
        <time>2017-08-25T09:41:04Z</time>
      </trkpt>
      <trkpt lat="44.1877" lon="0.7927">
        <ele>153.106</ele>
        <time>2017-08-25T09:41:10Z</time>
      </trkpt>
      <trkpt lat="44.18768" lon="0.79284">
        <ele>154.028</ele>
        <time>2017-08-25T09:41:18Z</time>
      </trkpt>
      <trkpt lat="44.18765" lon="0.79305">
        <ele>155.566</ele>
        <time>2017-08-25T09:41:29Z</time>
      </trkpt>
      <trkpt lat="44.18761" lon="0.79316">
        <ele>156.396</ele>
        <time>2017-08-25T09:41:36Z</time>
      </trkpt>
      <trkpt lat="44.18761" lon="0.79333">
        <ele>158.356</ele>
        <time>2017-08-25T09:41:46Z</time>
      </trkpt>
      <trkpt lat="44.18761" lon="0.7935">
        <ele>160.476</ele>
        <time>2017-08-25T09:41:55Z</time>
      </trkpt>
      <trkpt lat="44.18762" lon="0.79366">
        <ele>161.956</ele>
        <time>2017-08-25T09:42:04Z</time>
      </trkpt>
      <trkpt lat="44.18758" lon="0.79375">
        <ele>160.445</ele>
        <time>2017-08-25T09:42:10Z</time>
      </trkpt>
      <trkpt lat="44.18756" lon="0.79391">
        <ele>160.085</ele>
        <time>2017-08-25T09:42:19Z</time>
      </trkpt>
      <trkpt lat="44.18755" lon="0.79407">
        <ele>161.316</ele>
        <time>2017-08-25T09:42:28Z</time>
      </trkpt>
      <trkpt lat="44.18755" lon="0.79424">
        <ele>164.136</ele>
        <time>2017-08-25T09:42:37Z</time>
      </trkpt>
      <trkpt lat="44.18756" lon="0.79434">
        <ele>164.566</ele>
        <time>2017-08-25T09:42:43Z</time>
      </trkpt>
      <trkpt lat="44.18753" lon="0.79435">
        <ele>163.545</ele>
        <time>2017-08-25T09:42:48Z</time>
      </trkpt>
      <trkpt lat="44.1875" lon="0.79433">
        <ele>150.555</ele>
        <time>2017-08-25T09:45:15Z</time>
      </trkpt>
      <trkpt lat="44.18749" lon="0.79446">
        <ele>151.166</ele>
        <time>2017-08-25T09:45:24Z</time>
      </trkpt>
      <trkpt lat="44.1875" lon="0.79461">
        <ele>154.217</ele>
        <time>2017-08-25T09:45:31Z</time>
      </trkpt>
      <trkpt lat="44.18749" lon="0.79476">
        <ele>158.046</ele>
        <time>2017-08-25T09:45:39Z</time>
      </trkpt>
      <trkpt lat="44.1875" lon="0.79491">
        <ele>159.946</ele>
        <time>2017-08-25T09:45:47Z</time>
      </trkpt>
      <trkpt lat="44.1875" lon="0.79506">
        <ele>160.866</ele>
        <time>2017-08-25T09:45:54Z</time>
      </trkpt>
      <trkpt lat="44.18749" lon="0.79532">
        <ele>162.596</ele>
        <time>2017-08-25T09:46:01Z</time>
      </trkpt>
      <trkpt lat="44.18747" lon="0.79558">
        <ele>164.077</ele>
        <time>2017-08-25T09:46:08Z</time>
      </trkpt>
      <trkpt lat="44.18746" lon="0.79588">
        <ele>166.197</ele>
        <time>2017-08-25T09:46:16Z</time>
      </trkpt>
      <trkpt lat="44.18743" lon="0.79612">
        <ele>166.446</ele>
        <time>2017-08-25T09:46:22Z</time>
      </trkpt>
      <trkpt lat="44.18733" lon="0.7962">
        <ele>165.236</ele>
        <time>2017-08-25T09:46:27Z</time>
      </trkpt>
      <trkpt lat="44.18712" lon="0.79612">
        <ele>165.327</ele>
        <time>2017-08-25T09:46:35Z</time>
      </trkpt>
      <trkpt lat="44.18704" lon="0.79612">
        <ele>165.506</ele>
        <time>2017-08-25T09:46:38Z</time>
      </trkpt>
      <trkpt lat="44.187" lon="0.79623">
        <ele>164.285</ele>
        <time>2017-08-25T09:46:42Z</time>
      </trkpt>
      <trkpt lat="44.18704" lon="0.79667">
        <ele>163.755</ele>
        <time>2017-08-25T09:46:52Z</time>
      </trkpt>
      <trkpt lat="44.18707" lon="0.79701">
        <ele>164.346</ele>
        <time>2017-08-25T09:46:59Z</time>
      </trkpt>
      <trkpt lat="44.18709" lon="0.79754">
        <ele>163.945</ele>
        <time>2017-08-25T09:47:09Z</time>
      </trkpt>
      <trkpt lat="44.18712" lon="0.79779">
        <ele>164.126</ele>
        <time>2017-08-25T09:47:15Z</time>
      </trkpt>
      <trkpt lat="44.18711" lon="0.7978">
        <ele>166.457</ele>
        <time>2017-08-25T09:47:19Z</time>
      </trkpt>
      <trkpt lat="44.18697" lon="0.79771">
        <ele>173.296</ele>
        <time>2017-08-25T09:50:11Z</time>
      </trkpt>
      <trkpt lat="44.18698" lon="0.79777">
        <ele>174.316</ele>
        <time>2017-08-25T09:50:14Z</time>
      </trkpt>
      <trkpt lat="44.18698" lon="0.7978">
        <ele>173.336</ele>
        <time>2017-08-25T09:50:18Z</time>
      </trkpt>
      <trkpt lat="44.18699" lon="0.79774">
        <ele>172.165</ele>
        <time>2017-08-25T09:50:20Z</time>
      </trkpt>
      <trkpt lat="44.18702" lon="0.79763">
        <ele>169.455</ele>
        <time>2017-08-25T09:50:28Z</time>
      </trkpt>
      <trkpt lat="44.18712" lon="0.79766">
        <ele>167.296</ele>
        <time>2017-08-25T09:52:32Z</time>
      </trkpt>
      <trkpt lat="44.18714" lon="0.79766">
        <ele>167.076</ele>
        <time>2017-08-25T09:52:36Z</time>
      </trkpt>
      <trkpt lat="44.18716" lon="0.79774">
        <ele>167.037</ele>
        <time>2017-08-25T09:52:38Z</time>
      </trkpt>
      <trkpt lat="44.18718" lon="0.79824">
        <ele>167.296</ele>
        <time>2017-08-25T09:52:48Z</time>
      </trkpt>
      <trkpt lat="44.1872" lon="0.79867">
        <ele>167.227</ele>
        <time>2017-08-25T09:52:57Z</time>
      </trkpt>
      <trkpt lat="44.18723" lon="0.79908">
        <ele>167.316</ele>
        <time>2017-08-25T09:53:06Z</time>
      </trkpt>
      <trkpt lat="44.18725" lon="0.79939">
        <ele>166.576</ele>
        <time>2017-08-25T09:53:14Z</time>
      </trkpt>
      <trkpt lat="44.18725" lon="0.79972">
        <ele>165.507</ele>
        <time>2017-08-25T09:53:23Z</time>
      </trkpt>
      <trkpt lat="44.18722" lon="0.79991">
        <ele>165.517</ele>
        <time>2017-08-25T09:53:29Z</time>
      </trkpt>
      <trkpt lat="44.18721" lon="0.79997">
        <ele>165.357</ele>
        <time>2017-08-25T09:53:31Z</time>
      </trkpt>
      <trkpt lat="44.18727" lon="0.80012">
        <ele>164.48</ele>
        <time>2017-08-25T09:53:36Z</time>
      </trkpt>
      <trkpt lat="44.18729" lon="0.80019">
        <ele>164.517</ele>
        <time>2017-08-25T09:53:39Z</time>
      </trkpt>
      <trkpt lat="44.18731" lon="0.8004">
        <ele>162.686</ele>
        <time>2017-08-25T09:53:49Z</time>
      </trkpt>
      <trkpt lat="44.18731" lon="0.80044">
        <ele>162.766</ele>
        <time>2017-08-25T09:53:51Z</time>
      </trkpt>
      <trkpt lat="44.1874" lon="0.80044">
        <ele>162.176</ele>
        <time>2017-08-25T09:53:57Z</time>
      </trkpt>
      <trkpt lat="44.18755" lon="0.80042">
        <ele>161.036</ele>
        <time>2017-08-25T09:54:05Z</time>
      </trkpt>
      <trkpt lat="44.18769" lon="0.8004">
        <ele>160.467</ele>
        <time>2017-08-25T09:54:11Z</time>
      </trkpt>
      <trkpt lat="44.18771" lon="0.80039">
        <ele>160.417</ele>
        <time>2017-08-25T09:54:12Z</time>
      </trkpt>
      <trkpt lat="44.18774" lon="0.80031">
        <ele>160.287</ele>
        <time>2017-08-25T09:54:18Z</time>
      </trkpt>
      <trkpt lat="44.18772" lon="0.80027">
        <ele>160.737</ele>
        <time>2017-08-25T09:54:21Z</time>
      </trkpt>
      <trkpt lat="44.18771" lon="0.80023">
        <ele>160.977</ele>
        <time>2017-08-25T09:54:24Z</time>
      </trkpt>
      <trkpt lat="44.18777" lon="0.80015">
        <ele>162.387</ele>
        <time>2017-08-25T09:54:31Z</time>
      </trkpt>
      <trkpt lat="44.1878" lon="0.80015">
        <ele>162.417</ele>
        <time>2017-08-25T09:54:33Z</time>
      </trkpt>
      <trkpt lat="44.18782" lon="0.80017">
        <ele>162.087</ele>
        <time>2017-08-25T09:54:38Z</time>
      </trkpt>
      <trkpt lat="44.18787" lon="0.80026">
        <ele>171.227</ele>
        <time>2017-08-25T10:03:31Z</time>
      </trkpt>
      <trkpt lat="44.18784" lon="0.8002">
        <ele>170.227</ele>
        <time>2017-08-25T10:03:36Z</time>
      </trkpt>
      <trkpt lat="44.18781" lon="0.80026">
        <ele>169.216</ele>
        <time>2017-08-25T10:03:40Z</time>
      </trkpt>
      <trkpt lat="44.18778" lon="0.80039">
        <ele>166.617</ele>
        <time>2017-08-25T10:03:49Z</time>
      </trkpt>
      <trkpt lat="44.18773" lon="0.80047">
        <ele>165.727</ele>
        <time>2017-08-25T10:03:57Z</time>
      </trkpt>
      <trkpt lat="44.18772" lon="0.80047">
        <ele>165.797</ele>
        <time>2017-08-25T10:04:03Z</time>
      </trkpt>
      <trkpt lat="44.1877" lon="0.80043">
        <ele>169.127</ele>
        <time>2017-08-25T10:04:14Z</time>
      </trkpt>
      <trkpt lat="44.18775" lon="0.80038">
        <ele>167.497</ele>
        <time>2017-08-25T10:04:21Z</time>
      </trkpt>
      <trkpt lat="44.18776" lon="0.80039">
        <ele>167.207</ele>
        <time>2017-08-25T10:04:24Z</time>
      </trkpt>
      <trkpt lat="44.1878" lon="0.80039">
        <ele>166.396</ele>
        <time>2017-08-25T10:04:28Z</time>
      </trkpt>
      <trkpt lat="44.18781" lon="0.80044">
        <ele>165.787</ele>
        <time>2017-08-25T10:04:33Z</time>
      </trkpt>
      <trkpt lat="44.18781" lon="0.80045">
        <ele>165.587</ele>
        <time>2017-08-25T10:04:45Z</time>
      </trkpt>
      <trkpt lat="44.1878" lon="0.80043">
        <ele>164.926</ele>
        <time>2017-08-25T10:04:48Z</time>
      </trkpt>
      <trkpt lat="44.18774" lon="0.80039">
        <ele>164.597</ele>
        <time>2017-08-25T10:04:54Z</time>
      </trkpt>
      <trkpt lat="44.18768" lon="0.80035">
        <ele>164.687</ele>
        <time>2017-08-25T10:04:59Z</time>
      </trkpt>
      <trkpt lat="44.18761" lon="0.80025">
        <ele>164.277</ele>
        <time>2017-08-25T10:05:07Z</time>
      </trkpt>
      <trkpt lat="44.18749" lon="0.80014">
        <ele>163.856</ele>
        <time>2017-08-25T10:05:15Z</time>
      </trkpt>
      <trkpt lat="44.1874" lon="0.80013">
        <ele>163.657</ele>
        <time>2017-08-25T10:05:20Z</time>
      </trkpt>
      <trkpt lat="44.18732" lon="0.80013">
        <ele>163.377</ele>
        <time>2017-08-25T10:05:25Z</time>
      </trkpt>
      <trkpt lat="44.18723" lon="0.80005">
        <ele>162.867</ele>
        <time>2017-08-25T10:05:30Z</time>
      </trkpt>
      <trkpt lat="44.18713" lon="0.80008">
        <ele>162.697</ele>
        <time>2017-08-25T10:05:35Z</time>
      </trkpt>
      <trkpt lat="44.18711" lon="0.80021">
        <ele>162.977</ele>
        <time>2017-08-25T10:05:39Z</time>
      </trkpt>
      <trkpt lat="44.1871" lon="0.80039">
        <ele>163.137</ele>
        <time>2017-08-25T10:05:46Z</time>
      </trkpt>
      <trkpt lat="44.18708" lon="0.80042">
        <ele>163.157</ele>
        <time>2017-08-25T10:05:49Z</time>
      </trkpt>
      <trkpt lat="44.18706" lon="0.80043">
        <ele>162.646</ele>
        <time>2017-08-25T10:05:52Z</time>
      </trkpt>
      <trkpt lat="44.18697" lon="0.80046">
        <ele>162.537</ele>
        <time>2017-08-25T10:05:58Z</time>
      </trkpt>
      <trkpt lat="44.1868" lon="0.80049">
        <ele>161.726</ele>
        <time>2017-08-25T10:06:07Z</time>
      </trkpt>
      <trkpt lat="44.18673" lon="0.80046">
        <ele>161.096</ele>
        <time>2017-08-25T10:06:09Z</time>
      </trkpt>
      <trkpt lat="44.18663" lon="0.80024">
        <ele>159.205</ele>
        <time>2017-08-25T10:06:13Z</time>
      </trkpt>
      <trkpt lat="44.18648" lon="0.79957">
        <ele>156.334</ele>
        <time>2017-08-25T10:06:21Z</time>
      </trkpt>
      <trkpt lat="44.18643" lon="0.7991">
        <ele>155.756</ele>
        <time>2017-08-25T10:06:26Z</time>
      </trkpt>
      <trkpt lat="44.18638" lon="0.79841">
        <ele>154.976</ele>
        <time>2017-08-25T10:06:34Z</time>
      </trkpt>
      <trkpt lat="44.18631" lon="0.79778">
        <ele>154.686</ele>
        <time>2017-08-25T10:06:42Z</time>
      </trkpt>
      <trkpt lat="44.18625" lon="0.79741">
        <ele>155.177</ele>
        <time>2017-08-25T10:06:48Z</time>
      </trkpt>
      <trkpt lat="44.18622" lon="0.79718">
        <ele>155.806</ele>
        <time>2017-08-25T10:06:54Z</time>
      </trkpt>
      <trkpt lat="44.18619" lon="0.79697">
        <ele>154.995</ele>
        <time>2017-08-25T10:07:03Z</time>
      </trkpt>
      <trkpt lat="44.18615" lon="0.79674">
        <ele>154.646</ele>
        <time>2017-08-25T10:07:10Z</time>
      </trkpt>
      <trkpt lat="44.18609" lon="0.79639">
        <ele>152.254</ele>
        <time>2017-08-25T10:07:16Z</time>
      </trkpt>
      <trkpt lat="44.18603" lon="0.79594">
        <ele>151.745</ele>
        <time>2017-08-25T10:07:22Z</time>
      </trkpt>
      <trkpt lat="44.186" lon="0.79562">
        <ele>151.956</ele>
        <time>2017-08-25T10:07:28Z</time>
      </trkpt>
      <trkpt lat="44.18597" lon="0.79535">
        <ele>151.675</ele>
        <time>2017-08-25T10:07:35Z</time>
      </trkpt>
      <trkpt lat="44.18595" lon="0.79517">
        <ele>151.585</ele>
        <time>2017-08-25T10:07:40Z</time>
      </trkpt>
      <trkpt lat="44.18596" lon="0.79495">
        <ele>151.485</ele>
        <time>2017-08-25T10:07:47Z</time>
      </trkpt>
      <trkpt lat="44.18597" lon="0.79473">
        <ele>151.325</ele>
        <time>2017-08-25T10:07:55Z</time>
      </trkpt>
      <trkpt lat="44.18601" lon="0.79455">
        <ele>151.296</ele>
        <time>2017-08-25T10:08:02Z</time>
      </trkpt>
      <trkpt lat="44.18601" lon="0.79447">
        <ele>151.325</ele>
        <time>2017-08-25T10:08:06Z</time>
      </trkpt>
      <trkpt lat="44.18602" lon="0.79434">
        <ele>151.815</ele>
        <time>2017-08-25T10:08:12Z</time>
      </trkpt>
      <trkpt lat="44.18605" lon="0.7941">
        <ele>152.015</ele>
        <time>2017-08-25T10:08:20Z</time>
      </trkpt>
      <trkpt lat="44.18611" lon="0.79396">
        <ele>152.455</ele>
        <time>2017-08-25T10:08:26Z</time>
      </trkpt>
      <trkpt lat="44.18614" lon="0.79388">
        <ele>152.525</ele>
        <time>2017-08-25T10:08:29Z</time>
      </trkpt>
      <trkpt lat="44.1862" lon="0.7937">
        <ele>152.134</ele>
        <time>2017-08-25T10:08:36Z</time>
      </trkpt>
      <trkpt lat="44.18628" lon="0.7935">
        <ele>151.755</ele>
        <time>2017-08-25T10:08:43Z</time>
      </trkpt>
      <trkpt lat="44.18637" lon="0.7933">
        <ele>151.615</ele>
        <time>2017-08-25T10:08:51Z</time>
      </trkpt>
      <trkpt lat="44.18651" lon="0.79313">
        <ele>152.346</ele>
        <time>2017-08-25T10:08:59Z</time>
      </trkpt>
      <trkpt lat="44.18675" lon="0.79303">
        <ele>153.746</ele>
        <time>2017-08-25T10:09:10Z</time>
      </trkpt>
      <trkpt lat="44.18696" lon="0.79295">
        <ele>154.255</ele>
        <time>2017-08-25T10:09:19Z</time>
      </trkpt>
      <trkpt lat="44.18715" lon="0.79286">
        <ele>153.956</ele>
        <time>2017-08-25T10:09:26Z</time>
      </trkpt>
      <trkpt lat="44.18736" lon="0.79279">
        <ele>153.385</ele>
        <time>2017-08-25T10:09:32Z</time>
      </trkpt>
      <trkpt lat="44.18745" lon="0.79275">
        <ele>152.474</ele>
        <time>2017-08-25T10:09:37Z</time>
      </trkpt>
      <trkpt lat="44.18757" lon="0.79274">
        <ele>152.304</ele>
        <time>2017-08-25T10:09:41Z</time>
      </trkpt>
      <trkpt lat="44.18766" lon="0.79274">
        <ele>151.244</ele>
        <time>2017-08-25T10:09:45Z</time>
      </trkpt>
      <trkpt lat="44.1877" lon="0.79265">
        <ele>149.983</ele>
        <time>2017-08-25T10:09:50Z</time>
      </trkpt>
      <trkpt lat="44.18771" lon="0.79234">
        <ele>150.255</ele>
        <time>2017-08-25T10:09:56Z</time>
      </trkpt>
      <trkpt lat="44.18768" lon="0.79199">
        <ele>147.701</ele>
        <time>2017-08-25T10:10:01Z</time>
      </trkpt>
      <trkpt lat="44.18767" lon="0.79192">
        <ele>146.831</ele>
        <time>2017-08-25T10:10:02Z</time>
      </trkpt>
      <trkpt lat="44.18758" lon="0.79179">
        <ele>143.32</ele>
        <time>2017-08-25T10:10:05Z</time>
      </trkpt>
      <trkpt lat="44.18736" lon="0.79183">
        <ele>138.727</ele>
        <time>2017-08-25T10:10:08Z</time>
      </trkpt>
      <trkpt lat="44.18712" lon="0.79177">
        <ele>134.778</ele>
        <time>2017-08-25T10:10:11Z</time>
      </trkpt>
      <trkpt lat="44.18669" lon="0.79156">
        <ele>127.218</ele>
        <time>2017-08-25T10:10:16Z</time>
      </trkpt>
      <trkpt lat="44.18634" lon="0.79151">
        <ele>121.699</ele>
        <time>2017-08-25T10:10:21Z</time>
      </trkpt>
      <trkpt lat="44.18623" lon="0.79149">
        <ele>119.332</ele>
        <time>2017-08-25T10:10:25Z</time>
      </trkpt>
      <trkpt lat="44.18624" lon="0.7915">
        <ele>117.083</ele>
        <time>2017-08-25T10:10:35Z</time>
      </trkpt>
      <trkpt lat="44.1863" lon="0.79139">
        <ele>116.674</ele>
        <time>2017-08-25T10:10:39Z</time>
      </trkpt>
      <trkpt lat="44.18651" lon="0.79122">
        <ele>114.882</ele>
        <time>2017-08-25T10:10:44Z</time>
      </trkpt>
      <trkpt lat="44.18684" lon="0.79103">
        <ele>112.632</ele>
        <time>2017-08-25T10:10:49Z</time>
      </trkpt>
      <trkpt lat="44.18731" lon="0.79073">
        <ele>109.472</ele>
        <time>2017-08-25T10:10:55Z</time>
      </trkpt>
      <trkpt lat="44.18748" lon="0.79066">
        <ele>108.843</ele>
        <time>2017-08-25T10:10:57Z</time>
      </trkpt>
      <trkpt lat="44.18794" lon="0.7906">
        <ele>106.512</ele>
        <time>2017-08-25T10:11:02Z</time>
      </trkpt>
      <trkpt lat="44.18828" lon="0.79075">
        <ele>105.103</ele>
        <time>2017-08-25T10:11:06Z</time>
      </trkpt>
      <trkpt lat="44.18844" lon="0.79102">
        <ele>104.754</ele>
        <time>2017-08-25T10:11:09Z</time>
      </trkpt>
      <trkpt lat="44.18872" lon="0.79161">
        <ele>104.694</ele>
        <time>2017-08-25T10:11:16Z</time>
      </trkpt>
      <trkpt lat="44.18895" lon="0.79219">
        <ele>105.226</ele>
        <time>2017-08-25T10:11:24Z</time>
      </trkpt>
      <trkpt lat="44.18905" lon="0.79265">
        <ele>105.386</ele>
        <time>2017-08-25T10:11:31Z</time>
      </trkpt>
      <trkpt lat="44.18912" lon="0.79306">
        <ele>105.796</ele>
        <time>2017-08-25T10:11:39Z</time>
      </trkpt>
      <trkpt lat="44.18917" lon="0.79339">
        <ele>105.766</ele>
        <time>2017-08-25T10:11:47Z</time>
      </trkpt>
      <trkpt lat="44.18921" lon="0.7937">
        <ele>105.225</ele>
        <time>2017-08-25T10:11:54Z</time>
      </trkpt>
      <trkpt lat="44.18928" lon="0.79411">
        <ele>104.275</ele>
        <time>2017-08-25T10:12:01Z</time>
      </trkpt>
      <trkpt lat="44.18935" lon="0.7947">
        <ele>102.904</ele>
        <time>2017-08-25T10:12:09Z</time>
      </trkpt>
      <trkpt lat="44.18934" lon="0.79517">
        <ele>102.594</ele>
        <time>2017-08-25T10:12:14Z</time>
      </trkpt>
      <trkpt lat="44.1893" lon="0.79586">
        <ele>100.683</ele>
        <time>2017-08-25T10:12:20Z</time>
      </trkpt>
      <trkpt lat="44.18932" lon="0.79613">
        <ele>99.794</ele>
        <time>2017-08-25T10:12:22Z</time>
      </trkpt>
      <trkpt lat="44.18942" lon="0.79667">
        <ele>98.364</ele>
        <time>2017-08-25T10:12:26Z</time>
      </trkpt>
      <trkpt lat="44.18972" lon="0.79754">
        <ele>92.463</ele>
        <time>2017-08-25T10:12:33Z</time>
      </trkpt>
      <trkpt lat="44.18981" lon="0.79828">
        <ele>88.772</ele>
        <time>2017-08-25T10:12:38Z</time>
      </trkpt>
      <trkpt lat="44.1899" lon="0.79924">
        <ele>84.542</ele>
        <time>2017-08-25T10:12:44Z</time>
      </trkpt>
      <trkpt lat="44.19008" lon="0.80017">
        <ele>78.832</ele>
        <time>2017-08-25T10:12:50Z</time>
      </trkpt>
      <trkpt lat="44.19036" lon="0.80141">
        <ele>73.973</ele>
        <time>2017-08-25T10:12:58Z</time>
      </trkpt>
      <trkpt lat="44.19063" lon="0.80192">
        <ele>71.833</ele>
        <time>2017-08-25T10:13:02Z</time>
      </trkpt>
      <trkpt lat="44.19094" lon="0.80216">
        <ele>69.833</ele>
        <time>2017-08-25T10:13:05Z</time>
      </trkpt>
      <trkpt lat="44.19128" lon="0.80221">
        <ele>68.325</ele>
        <time>2017-08-25T10:13:08Z</time>
      </trkpt>
      <trkpt lat="44.19204" lon="0.80217">
        <ele>67.118</ele>
        <time>2017-08-25T10:13:15Z</time>
      </trkpt>
      <trkpt lat="44.19246" lon="0.80216">
        <ele>67.226</ele>
        <time>2017-08-25T10:13:20Z</time>
      </trkpt>
      <trkpt lat="44.19317" lon="0.80212">
        <ele>65.779</ele>
        <time>2017-08-25T10:13:29Z</time>
      </trkpt>
      <trkpt lat="44.19375" lon="0.8021">
        <ele>65.769</ele>
        <time>2017-08-25T10:13:37Z</time>
      </trkpt>
      <trkpt lat="44.19423" lon="0.80207">
        <ele>66.14</ele>
        <time>2017-08-25T10:13:45Z</time>
      </trkpt>
      <trkpt lat="44.19463" lon="0.80206">
        <ele>66.52</ele>
        <time>2017-08-25T10:13:53Z</time>
      </trkpt>
      <trkpt lat="44.19498" lon="0.80204">
        <ele>66.91</ele>
        <time>2017-08-25T10:14:01Z</time>
      </trkpt>
      <trkpt lat="44.19544" lon="0.80202">
        <ele>66.849</ele>
        <time>2017-08-25T10:14:11Z</time>
      </trkpt>
      <trkpt lat="44.19585" lon="0.80201">
        <ele>66.689</ele>
        <time>2017-08-25T10:14:20Z</time>
      </trkpt>
      <trkpt lat="44.1962" lon="0.80204">
        <ele>66.931</ele>
        <time>2017-08-25T10:14:28Z</time>
      </trkpt>
      <trkpt lat="44.19633" lon="0.8021">
        <ele>67.181</ele>
        <time>2017-08-25T10:14:33Z</time>
      </trkpt>
      <trkpt lat="44.1964" lon="0.80214">
        <ele>67.354</ele>
        <time>2017-08-25T10:14:37Z</time>
      </trkpt>
      <trkpt lat="44.19648" lon="0.8021">
        <ele>67.521</ele>
        <time>2017-08-25T10:14:41Z</time>
      </trkpt>
      <trkpt lat="44.19658" lon="0.80183">
        <ele>67.401</ele>
        <time>2017-08-25T10:14:48Z</time>
      </trkpt>
      <trkpt lat="44.19671" lon="0.8017">
        <ele>67.501</ele>
        <time>2017-08-25T10:14:53Z</time>
      </trkpt>
      <trkpt lat="44.19688" lon="0.80166">
        <ele>67.711</ele>
        <time>2017-08-25T10:14:59Z</time>
      </trkpt>
      <trkpt lat="44.19692" lon="0.80165">
        <ele>67.701</ele>
        <time>2017-08-25T10:15:02Z</time>
      </trkpt>
      <trkpt lat="44.19696" lon="0.80164">
        <ele>67.921</ele>
        <time>2017-08-25T10:15:07Z</time>
      </trkpt>
      <trkpt lat="44.19696" lon="0.80163">
        <ele>68.221</ele>
        <time>2017-08-25T10:15:14Z</time>
      </trkpt>
      <trkpt lat="44.197" lon="0.80164">
        <ele>69.122</ele>
        <time>2017-08-25T10:15:40Z</time>
      </trkpt>
      <trkpt lat="44.19711" lon="0.80163">
        <ele>69.411</ele>
        <time>2017-08-25T10:15:46Z</time>
      </trkpt>
      <trkpt lat="44.19732" lon="0.80163">
        <ele>69.551</ele>
        <time>2017-08-25T10:15:54Z</time>
      </trkpt>
      <trkpt lat="44.19764" lon="0.80164">
        <ele>69.701</ele>
        <time>2017-08-25T10:16:04Z</time>
      </trkpt>
      <trkpt lat="44.19802" lon="0.80169">
        <ele>69.931</ele>
        <time>2017-08-25T10:16:15Z</time>
      </trkpt>
      <trkpt lat="44.19833" lon="0.80174">
        <ele>70.833</ele>
        <time>2017-08-25T10:16:24Z</time>
      </trkpt>
      <trkpt lat="44.1986" lon="0.80182">
        <ele>71.763</ele>
        <time>2017-08-25T10:16:32Z</time>
      </trkpt>
      <trkpt lat="44.19896" lon="0.8019">
        <ele>72.722</ele>
        <time>2017-08-25T10:16:43Z</time>
      </trkpt>
      <trkpt lat="44.1993" lon="0.802">
        <ele>73.647</ele>
        <time>2017-08-25T10:16:54Z</time>
      </trkpt>
      <trkpt lat="44.19966" lon="0.80214">
        <ele>75.403</ele>
        <time>2017-08-25T10:17:06Z</time>
      </trkpt>
      <trkpt lat="44.19993" lon="0.80233">
        <ele>76.573</ele>
        <time>2017-08-25T10:17:16Z</time>
      </trkpt>
      <trkpt lat="44.20022" lon="0.80251">
        <ele>76.612</ele>
        <time>2017-08-25T10:17:26Z</time>
      </trkpt>
      <trkpt lat="44.20047" lon="0.80264">
        <ele>75.372</ele>
        <time>2017-08-25T10:17:32Z</time>
      </trkpt>
      <trkpt lat="44.20091" lon="0.80284">
        <ele>74.953</ele>
        <time>2017-08-25T10:17:42Z</time>
      </trkpt>
      <trkpt lat="44.20134" lon="0.80298">
        <ele>75.183</ele>
        <time>2017-08-25T10:17:52Z</time>
      </trkpt>
      <trkpt lat="44.20174" lon="0.8031">
        <ele>76.404</ele>
        <time>2017-08-25T10:18:02Z</time>
      </trkpt>
      <trkpt lat="44.20203" lon="0.80318">
        <ele>77.574</ele>
        <time>2017-08-25T10:18:11Z</time>
      </trkpt>
      <trkpt lat="44.20234" lon="0.80328">
        <ele>78.734</ele>
        <time>2017-08-25T10:18:21Z</time>
      </trkpt>
      <trkpt lat="44.20269" lon="0.8034">
        <ele>79.795</ele>
        <time>2017-08-25T10:18:32Z</time>
      </trkpt>
      <trkpt lat="44.203" lon="0.80355">
        <ele>80.635</ele>
        <time>2017-08-25T10:18:42Z</time>
      </trkpt>
      <trkpt lat="44.20327" lon="0.80378">
        <ele>81.305</ele>
        <time>2017-08-25T10:18:52Z</time>
      </trkpt>
      <trkpt lat="44.20336" lon="0.8039">
        <ele>81.495</ele>
        <time>2017-08-25T10:18:58Z</time>
      </trkpt>
      <trkpt lat="44.20336" lon="0.80391">
        <ele>81.574</ele>
        <time>2017-08-25T10:19:04Z</time>
      </trkpt>
      <trkpt lat="44.20335" lon="0.80386">
        <ele>82.875</ele>
        <time>2017-08-25T10:21:02Z</time>
      </trkpt>
      <trkpt lat="44.20339" lon="0.80392">
        <ele>82.665</ele>
        <time>2017-08-25T10:21:11Z</time>
      </trkpt>
      <trkpt lat="44.20346" lon="0.804">
        <ele>82.494</ele>
        <time>2017-08-25T10:21:17Z</time>
      </trkpt>
      <trkpt lat="44.20363" lon="0.80418">
        <ele>82.264</ele>
        <time>2017-08-25T10:21:26Z</time>
      </trkpt>
      <trkpt lat="44.20385" lon="0.80435">
        <ele>81.814</ele>
        <time>2017-08-25T10:21:33Z</time>
      </trkpt>
      <trkpt lat="44.20408" lon="0.80449">
        <ele>79.664</ele>
        <time>2017-08-25T10:21:39Z</time>
      </trkpt>
      <trkpt lat="44.20446" lon="0.80469">
        <ele>77.684</ele>
        <time>2017-08-25T10:21:48Z</time>
      </trkpt>
      <trkpt lat="44.2048" lon="0.80486">
        <ele>77.635</ele>
        <time>2017-08-25T10:21:56Z</time>
      </trkpt>
      <trkpt lat="44.20516" lon="0.80503">
        <ele>77.375</ele>
        <time>2017-08-25T10:22:05Z</time>
      </trkpt>
      <trkpt lat="44.20568" lon="0.8053">
        <ele>76.965</ele>
        <time>2017-08-25T10:22:17Z</time>
      </trkpt>
      <trkpt lat="44.20613" lon="0.80554">
        <ele>77.105</ele>
        <time>2017-08-25T10:22:27Z</time>
      </trkpt>
      <trkpt lat="44.20626" lon="0.80565">
        <ele>77.216</ele>
        <time>2017-08-25T10:22:31Z</time>
      </trkpt>
      <trkpt lat="44.20633" lon="0.80574">
        <ele>77.206</ele>
        <time>2017-08-25T10:22:33Z</time>
      </trkpt>
      <trkpt lat="44.20653" lon="0.8062">
        <ele>77.727</ele>
        <time>2017-08-25T10:22:42Z</time>
      </trkpt>
      <trkpt lat="44.20666" lon="0.80649">
        <ele>78.018</ele>
        <time>2017-08-25T10:22:48Z</time>
      </trkpt>
      <trkpt lat="44.2069" lon="0.80692">
        <ele>77.396</ele>
        <time>2017-08-25T10:22:57Z</time>
      </trkpt>
      <trkpt lat="44.20714" lon="0.80727">
        <ele>77.076</ele>
        <time>2017-08-25T10:23:04Z</time>
      </trkpt>
      <trkpt lat="44.20763" lon="0.80777">
        <ele>77.117</ele>
        <time>2017-08-25T10:23:16Z</time>
      </trkpt>
      <trkpt lat="44.20814" lon="0.80823">
        <ele>77.858</ele>
        <time>2017-08-25T10:23:28Z</time>
      </trkpt>
      <trkpt lat="44.20857" lon="0.80862">
        <ele>78.388</ele>
        <time>2017-08-25T10:23:39Z</time>
      </trkpt>
      <trkpt lat="44.2089" lon="0.80902">
        <ele>78.788</ele>
        <time>2017-08-25T10:23:49Z</time>
      </trkpt>
      <trkpt lat="44.2092" lon="0.80937">
        <ele>78.858</ele>
        <time>2017-08-25T10:23:58Z</time>
      </trkpt>
      <trkpt lat="44.20961" lon="0.80988">
        <ele>78.698</ele>
        <time>2017-08-25T10:24:10Z</time>
      </trkpt>
      <trkpt lat="44.20981" lon="0.81032">
        <ele>78.899</ele>
        <time>2017-08-25T10:24:18Z</time>
      </trkpt>
      <trkpt lat="44.21003" lon="0.81091">
        <ele>79.258</ele>
        <time>2017-08-25T10:24:28Z</time>
      </trkpt>
      <trkpt lat="44.2102" lon="0.81137">
        <ele>78.669</ele>
        <time>2017-08-25T10:24:36Z</time>
      </trkpt>
      <trkpt lat="44.21044" lon="0.81184">
        <ele>78.909</ele>
        <time>2017-08-25T10:24:45Z</time>
      </trkpt>
      <trkpt lat="44.2107" lon="0.81235">
        <ele>78.959</ele>
        <time>2017-08-25T10:24:55Z</time>
      </trkpt>
      <trkpt lat="44.21082" lon="0.8128">
        <ele>79.11</ele>
        <time>2017-08-25T10:25:03Z</time>
      </trkpt>
      <trkpt lat="44.21087" lon="0.81328">
        <ele>78.979</ele>
        <time>2017-08-25T10:25:11Z</time>
      </trkpt>
      <trkpt lat="44.21092" lon="0.81367">
        <ele>79.51</ele>
        <time>2017-08-25T10:25:18Z</time>
      </trkpt>
      <trkpt lat="44.21104" lon="0.81422">
        <ele>80.091</ele>
        <time>2017-08-25T10:25:28Z</time>
      </trkpt>
      <trkpt lat="44.21112" lon="0.81474">
        <ele>80.46</ele>
        <time>2017-08-25T10:25:37Z</time>
      </trkpt>
      <trkpt lat="44.2112" lon="0.81526">
        <ele>80.6</ele>
        <time>2017-08-25T10:25:46Z</time>
      </trkpt>
      <trkpt lat="44.21133" lon="0.8158">
        <ele>80.97</ele>
        <time>2017-08-25T10:25:55Z</time>
      </trkpt>
      <trkpt lat="44.21156" lon="0.81633">
        <ele>81.481</ele>
        <time>2017-08-25T10:26:05Z</time>
      </trkpt>
      <trkpt lat="44.21176" lon="0.81663">
        <ele>82.291</ele>
        <time>2017-08-25T10:26:12Z</time>
      </trkpt>
      <trkpt lat="44.21212" lon="0.81715">
        <ele>82.591</ele>
        <time>2017-08-25T10:26:24Z</time>
      </trkpt>
      <trkpt lat="44.2125" lon="0.81768">
        <ele>82.651</ele>
        <time>2017-08-25T10:26:36Z</time>
      </trkpt>
      <trkpt lat="44.21289" lon="0.8182">
        <ele>82.812</ele>
        <time>2017-08-25T10:26:48Z</time>
      </trkpt>
      <trkpt lat="44.21324" lon="0.81863">
        <ele>82.551</ele>
        <time>2017-08-25T10:26:58Z</time>
      </trkpt>
      <trkpt lat="44.21357" lon="0.81907">
        <ele>82.182</ele>
        <time>2017-08-25T10:27:07Z</time>
      </trkpt>
      <trkpt lat="44.21397" lon="0.81964">
        <ele>82.582</ele>
        <time>2017-08-25T10:27:19Z</time>
      </trkpt>
      <trkpt lat="44.21417" lon="0.82005">
        <ele>83.032</ele>
        <time>2017-08-25T10:27:27Z</time>
      </trkpt>
      <trkpt lat="44.21438" lon="0.82063">
        <ele>83.733</ele>
        <time>2017-08-25T10:27:38Z</time>
      </trkpt>
      <trkpt lat="44.21458" lon="0.82107">
        <ele>84.313</ele>
        <time>2017-08-25T10:27:47Z</time>
      </trkpt>
      <trkpt lat="44.21482" lon="0.82134">
        <ele>84.533</ele>
        <time>2017-08-25T10:27:54Z</time>
      </trkpt>
      <trkpt lat="44.21506" lon="0.82157">
        <ele>84.142</ele>
        <time>2017-08-25T10:28:00Z</time>
      </trkpt>
      <trkpt lat="44.21522" lon="0.82182">
        <ele>84.123</ele>
        <time>2017-08-25T10:28:05Z</time>
      </trkpt>
      <trkpt lat="44.21539" lon="0.82235">
        <ele>84.754</ele>
        <time>2017-08-25T10:28:15Z</time>
      </trkpt>
      <trkpt lat="44.21555" lon="0.82289">
        <ele>85.643</ele>
        <time>2017-08-25T10:28:26Z</time>
      </trkpt>
      <trkpt lat="44.21553" lon="0.82305">
        <ele>86.755</ele>
        <time>2017-08-25T10:28:30Z</time>
      </trkpt>
      <trkpt lat="44.21543" lon="0.82311">
        <ele>88.035</ele>
        <time>2017-08-25T10:28:36Z</time>
      </trkpt>
      <trkpt lat="44.21529" lon="0.82317">
        <ele>89.425</ele>
        <time>2017-08-25T10:28:46Z</time>
      </trkpt>
      <trkpt lat="44.21522" lon="0.8232">
        <ele>90.224</ele>
        <time>2017-08-25T10:28:53Z</time>
      </trkpt>
      <trkpt lat="44.2151" lon="0.82325">
        <ele>91.515</ele>
        <time>2017-08-25T10:29:05Z</time>
      </trkpt>
      <trkpt lat="44.21502" lon="0.82328">
        <ele>92.305</ele>
        <time>2017-08-25T10:29:14Z</time>
      </trkpt>
      <trkpt lat="44.21492" lon="0.82332">
        <ele>92.805</ele>
        <time>2017-08-25T10:29:24Z</time>
      </trkpt>
      <trkpt lat="44.21481" lon="0.82336">
        <ele>94.985</ele>
        <time>2017-08-25T10:29:36Z</time>
      </trkpt>
      <trkpt lat="44.21477" lon="0.82337">
        <ele>95.864</ele>
        <time>2017-08-25T10:29:40Z</time>
      </trkpt>
      <trkpt lat="44.21467" lon="0.82339">
        <ele>97.474</ele>
        <time>2017-08-25T10:29:51Z</time>
      </trkpt>
      <trkpt lat="44.21458" lon="0.82341">
        <ele>98.364</ele>
        <time>2017-08-25T10:30:00Z</time>
      </trkpt>
      <trkpt lat="44.21457" lon="0.82341">
        <ele>98.494</ele>
        <time>2017-08-25T10:30:01Z</time>
      </trkpt>
      <trkpt lat="44.21453" lon="0.82343">
        <ele>99.144</ele>
        <time>2017-08-25T10:30:06Z</time>
      </trkpt>
      <trkpt lat="44.21443" lon="0.82346">
        <ele>100.955</ele>
        <time>2017-08-25T10:30:17Z</time>
      </trkpt>
      <trkpt lat="44.21435" lon="0.82352">
        <ele>102.754</ele>
        <time>2017-08-25T10:30:27Z</time>
      </trkpt>
      <trkpt lat="44.21427" lon="0.82356">
        <ele>104.063</ele>
        <time>2017-08-25T10:30:36Z</time>
      </trkpt>
      <trkpt lat="44.21419" lon="0.82362">
        <ele>105.564</ele>
        <time>2017-08-25T10:30:46Z</time>
      </trkpt>
      <trkpt lat="44.21411" lon="0.82369">
        <ele>107.163</ele>
        <time>2017-08-25T10:30:56Z</time>
      </trkpt>
      <trkpt lat="44.21403" lon="0.82377">
        <ele>109.034</ele>
        <time>2017-08-25T10:31:06Z</time>
      </trkpt>
      <trkpt lat="44.21396" lon="0.82384">
        <ele>110.224</ele>
        <time>2017-08-25T10:31:16Z</time>
      </trkpt>
      <trkpt lat="44.21391" lon="0.82392">
        <ele>111.563</ele>
        <time>2017-08-25T10:31:25Z</time>
      </trkpt>
      <trkpt lat="44.21388" lon="0.82396">
        <ele>112.283</ele>
        <time>2017-08-25T10:31:29Z</time>
      </trkpt>
      <trkpt lat="44.21383" lon="0.82405">
        <ele>113.813</ele>
        <time>2017-08-25T10:31:39Z</time>
      </trkpt>
      <trkpt lat="44.21379" lon="0.82414">
        <ele>115.354</ele>
        <time>2017-08-25T10:31:47Z</time>
      </trkpt>
      <trkpt lat="44.21377" lon="0.82418">
        <ele>115.954</ele>
        <time>2017-08-25T10:31:51Z</time>
      </trkpt>
      <trkpt lat="44.21372" lon="0.82428">
        <ele>117.044</ele>
        <time>2017-08-25T10:32:01Z</time>
      </trkpt>
      <trkpt lat="44.21366" lon="0.8244">
        <ele>118.904</ele>
        <time>2017-08-25T10:32:12Z</time>
      </trkpt>
      <trkpt lat="44.2136" lon="0.82452">
        <ele>120.754</ele>
        <time>2017-08-25T10:32:23Z</time>
      </trkpt>
      <trkpt lat="44.21356" lon="0.82462">
        <ele>122.454</ele>
        <time>2017-08-25T10:32:32Z</time>
      </trkpt>
      <trkpt lat="44.21354" lon="0.82466">
        <ele>123.124</ele>
        <time>2017-08-25T10:32:36Z</time>
      </trkpt>
      <trkpt lat="44.21349" lon="0.82477">
        <ele>124.684</ele>
        <time>2017-08-25T10:32:46Z</time>
      </trkpt>
      <trkpt lat="44.21347" lon="0.82487">
        <ele>125.684</ele>
        <time>2017-08-25T10:32:53Z</time>
      </trkpt>
      <trkpt lat="44.21347" lon="0.82493">
        <ele>126.674</ele>
        <time>2017-08-25T10:32:58Z</time>
      </trkpt>
      <trkpt lat="44.2135" lon="0.82512">
        <ele>129.075</ele>
        <time>2017-08-25T10:33:12Z</time>
      </trkpt>
      <trkpt lat="44.21354" lon="0.82525">
        <ele>130.859</ele>
        <time>2017-08-25T10:33:23Z</time>
      </trkpt>
      <trkpt lat="44.21358" lon="0.82541">
        <ele>132.965</ele>
        <time>2017-08-25T10:33:36Z</time>
      </trkpt>
      <trkpt lat="44.21359" lon="0.82555">
        <ele>135.425</ele>
        <time>2017-08-25T10:33:46Z</time>
      </trkpt>
      <trkpt lat="44.21356" lon="0.82566">
        <ele>137.264</ele>
        <time>2017-08-25T10:33:55Z</time>
      </trkpt>
      <trkpt lat="44.21348" lon="0.82574">
        <ele>139.655</ele>
        <time>2017-08-25T10:34:06Z</time>
      </trkpt>
      <trkpt lat="44.2134" lon="0.82575">
        <ele>140.834</ele>
        <time>2017-08-25T10:34:15Z</time>
      </trkpt>
      <trkpt lat="44.21332" lon="0.82576">
        <ele>142.145</ele>
        <time>2017-08-25T10:34:24Z</time>
      </trkpt>
      <trkpt lat="44.21323" lon="0.82577">
        <ele>143.745</ele>
        <time>2017-08-25T10:34:34Z</time>
      </trkpt>
      <trkpt lat="44.21313" lon="0.82578">
        <ele>144.875</ele>
        <time>2017-08-25T10:34:44Z</time>
      </trkpt>
      <trkpt lat="44.2131" lon="0.8258">
        <ele>145.044</ele>
        <time>2017-08-25T10:34:47Z</time>
      </trkpt>
      <trkpt lat="44.21303" lon="0.82576">
        <ele>145.024</ele>
        <time>2017-08-25T10:34:54Z</time>
      </trkpt>
      <trkpt lat="44.21296" lon="0.82563">
        <ele>145.294</ele>
        <time>2017-08-25T10:35:01Z</time>
      </trkpt>
      <trkpt lat="44.21286" lon="0.82537">
        <ele>145.554</ele>
        <time>2017-08-25T10:35:09Z</time>
      </trkpt>
      <trkpt lat="44.2128" lon="0.82517">
        <ele>145.834</ele>
        <time>2017-08-25T10:35:16Z</time>
      </trkpt>
      <trkpt lat="44.21274" lon="0.8249">
        <ele>146.614</ele>
        <time>2017-08-25T10:35:26Z</time>
      </trkpt>
      <trkpt lat="44.21268" lon="0.82469">
        <ele>147.965</ele>
        <time>2017-08-25T10:35:35Z</time>
      </trkpt>
      <trkpt lat="44.21264" lon="0.82453">
        <ele>149.855</ele>
        <time>2017-08-25T10:35:43Z</time>
      </trkpt>
      <trkpt lat="44.21257" lon="0.82454">
        <ele>149.723</ele>
        <time>2017-08-25T10:35:48Z</time>
      </trkpt>
      <trkpt lat="44.21255" lon="0.82456">
        <ele>149.533</ele>
        <time>2017-08-25T10:35:49Z</time>
      </trkpt>
      <trkpt lat="44.21242" lon="0.82467">
        <ele>147.199</ele>
        <time>2017-08-25T10:35:54Z</time>
      </trkpt>
      <trkpt lat="44.21223" lon="0.82485">
        <ele>142.553</ele>
        <time>2017-08-25T10:35:57Z</time>
      </trkpt>
      <trkpt lat="44.21192" lon="0.82521">
        <ele>131.761</ele>
        <time>2017-08-25T10:36:02Z</time>
      </trkpt>
      <trkpt lat="44.21183" lon="0.82532">
        <ele>127.479</ele>
        <time>2017-08-25T10:36:04Z</time>
      </trkpt>
      <trkpt lat="44.21172" lon="0.82541">
        <ele>122.537</ele>
        <time>2017-08-25T10:36:08Z</time>
      </trkpt>
      <trkpt lat="44.21172" lon="0.82541">
        <ele>121.902</ele>
        <time>2017-08-25T10:36:14Z</time>
      </trkpt>
      <trkpt lat="44.21177" lon="0.82553">
        <ele>121.362</ele>
        <time>2017-08-25T10:36:19Z</time>
      </trkpt>
      <trkpt lat="44.21187" lon="0.82566">
        <ele>120.922</ele>
        <time>2017-08-25T10:36:24Z</time>
      </trkpt>
      <trkpt lat="44.21192" lon="0.82572">
        <ele>121.073</ele>
        <time>2017-08-25T10:36:27Z</time>
      </trkpt>
      <trkpt lat="44.21204" lon="0.82594">
        <ele>121.173</ele>
        <time>2017-08-25T10:36:35Z</time>
      </trkpt>
      <trkpt lat="44.21213" lon="0.82615">
        <ele>120.713</ele>
        <time>2017-08-25T10:36:42Z</time>
      </trkpt>
      <trkpt lat="44.21219" lon="0.82631">
        <ele>121.144</ele>
        <time>2017-08-25T10:36:48Z</time>
      </trkpt>
      <trkpt lat="44.2122" lon="0.82655">
        <ele>121.113</ele>
        <time>2017-08-25T10:36:56Z</time>
      </trkpt>
      <trkpt lat="44.21215" lon="0.82674">
        <ele>121.383</ele>
        <time>2017-08-25T10:37:02Z</time>
      </trkpt>
      <trkpt lat="44.21206" lon="0.82684">
        <ele>120.692</ele>
        <time>2017-08-25T10:37:07Z</time>
      </trkpt>
      <trkpt lat="44.21192" lon="0.82686">
        <ele>119.792</ele>
        <time>2017-08-25T10:37:13Z</time>
      </trkpt>
      <trkpt lat="44.21179" lon="0.8269">
        <ele>118.261</ele>
        <time>2017-08-25T10:37:19Z</time>
      </trkpt>
      <trkpt lat="44.21167" lon="0.82692">
        <ele>118.783</ele>
        <time>2017-08-25T10:37:26Z</time>
      </trkpt>
      <trkpt lat="44.21151" lon="0.82691">
        <ele>118.853</ele>
        <time>2017-08-25T10:37:35Z</time>
      </trkpt>
      <trkpt lat="44.2114" lon="0.82693">
        <ele>119.594</ele>
        <time>2017-08-25T10:37:43Z</time>
      </trkpt>
      <trkpt lat="44.21139" lon="0.82693">
        <ele>119.533</ele>
        <time>2017-08-25T10:37:44Z</time>
      </trkpt>
      <trkpt lat="44.21125" lon="0.82689">
        <ele>120.204</ele>
        <time>2017-08-25T10:37:54Z</time>
      </trkpt>
      <trkpt lat="44.21116" lon="0.82689">
        <ele>121.594</ele>
        <time>2017-08-25T10:38:01Z</time>
      </trkpt>
      <trkpt lat="44.21105" lon="0.82686">
        <ele>123.684</ele>
        <time>2017-08-25T10:38:10Z</time>
      </trkpt>
      <trkpt lat="44.21098" lon="0.82681">
        <ele>125.475</ele>
        <time>2017-08-25T10:38:17Z</time>
      </trkpt>
      <trkpt lat="44.2109" lon="0.82675">
        <ele>127.425</ele>
        <time>2017-08-25T10:38:24Z</time>
      </trkpt>
      <trkpt lat="44.21081" lon="0.82668">
        <ele>130.234</ele>
        <time>2017-08-25T10:38:33Z</time>
      </trkpt>
      <trkpt lat="44.21068" lon="0.82661">
        <ele>131.032</ele>
        <time>2017-08-25T10:38:42Z</time>
      </trkpt>
      <trkpt lat="44.21058" lon="0.82659">
        <ele>130.802</ele>
        <time>2017-08-25T10:38:46Z</time>
      </trkpt>
      <trkpt lat="44.21054" lon="0.82667">
        <ele>131.364</ele>
        <time>2017-08-25T10:38:51Z</time>
      </trkpt>
      <trkpt lat="44.21051" lon="0.82683">
        <ele>133.803</ele>
        <time>2017-08-25T10:39:03Z</time>
      </trkpt>
      <trkpt lat="44.21048" lon="0.82693">
        <ele>134.423</ele>
        <time>2017-08-25T10:39:12Z</time>
      </trkpt>
      <trkpt lat="44.21043" lon="0.82703">
        <ele>134.822</ele>
        <time>2017-08-25T10:39:22Z</time>
      </trkpt>
      <trkpt lat="44.21036" lon="0.82706">
        <ele>135.493</ele>
        <time>2017-08-25T10:39:30Z</time>
      </trkpt>
      <trkpt lat="44.21024" lon="0.82709">
        <ele>136.592</ele>
        <time>2017-08-25T10:39:43Z</time>
      </trkpt>
      <trkpt lat="44.21015" lon="0.8271">
        <ele>137.202</ele>
        <time>2017-08-25T10:39:52Z</time>
      </trkpt>
      <trkpt lat="44.21008" lon="0.82716">
        <ele>137.672</ele>
        <time>2017-08-25T10:40:01Z</time>
      </trkpt>
      <trkpt lat="44.21003" lon="0.82725">
        <ele>138.162</ele>
        <time>2017-08-25T10:40:09Z</time>
      </trkpt>
      <trkpt lat="44.20998" lon="0.82734">
        <ele>139.672</ele>
        <time>2017-08-25T10:40:18Z</time>
      </trkpt>
      <trkpt lat="44.20993" lon="0.8274">
        <ele>140.843</ele>
        <time>2017-08-25T10:40:24Z</time>
      </trkpt>
      <trkpt lat="44.20987" lon="0.82745">
        <ele>142.532</ele>
        <time>2017-08-25T10:40:32Z</time>
      </trkpt>
      <trkpt lat="44.20982" lon="0.8275">
        <ele>143.833</ele>
        <time>2017-08-25T10:40:40Z</time>
      </trkpt>
      <trkpt lat="44.20977" lon="0.82756">
        <ele>144.652</ele>
        <time>2017-08-25T10:40:48Z</time>
      </trkpt>
      <trkpt lat="44.20972" lon="0.82761">
        <ele>145.423</ele>
        <time>2017-08-25T10:40:55Z</time>
      </trkpt>
      <trkpt lat="44.20967" lon="0.82767">
        <ele>145.482</ele>
        <time>2017-08-25T10:41:02Z</time>
      </trkpt>
      <trkpt lat="44.20956" lon="0.82775">
        <ele>147.283</ele>
        <time>2017-08-25T10:41:14Z</time>
      </trkpt>
      <trkpt lat="44.20947" lon="0.82782">
        <ele>149.454</ele>
        <time>2017-08-25T10:41:20Z</time>
      </trkpt>
      <trkpt lat="44.20936" lon="0.82791">
        <ele>151.533</ele>
        <time>2017-08-25T10:41:27Z</time>
      </trkpt>
      <trkpt lat="44.20931" lon="0.82796">
        <ele>152.161</ele>
        <time>2017-08-25T10:41:34Z</time>
      </trkpt>
      <trkpt lat="44.20922" lon="0.82806">
        <ele>152.421</ele>
        <time>2017-08-25T10:41:42Z</time>
      </trkpt>
      <trkpt lat="44.20913" lon="0.82816">
        <ele>151.611</ele>
        <time>2017-08-25T10:41:50Z</time>
      </trkpt>
      <trkpt lat="44.20901" lon="0.82824">
        <ele>152.062</ele>
        <time>2017-08-25T10:41:58Z</time>
      </trkpt>
      <trkpt lat="44.20891" lon="0.82832">
        <ele>151.921</ele>
        <time>2017-08-25T10:42:05Z</time>
      </trkpt>
      <trkpt lat="44.20882" lon="0.82839">
        <ele>151.601</ele>
        <time>2017-08-25T10:42:10Z</time>
      </trkpt>
      <trkpt lat="44.2087" lon="0.8285">
        <ele>152.191</ele>
        <time>2017-08-25T10:42:18Z</time>
      </trkpt>
      <trkpt lat="44.20861" lon="0.82859">
        <ele>153.451</ele>
        <time>2017-08-25T10:42:25Z</time>
      </trkpt>
      <trkpt lat="44.2085" lon="0.82867">
        <ele>152.58</ele>
        <time>2017-08-25T10:42:32Z</time>
      </trkpt>
      <trkpt lat="44.20838" lon="0.82876">
        <ele>152.081</ele>
        <time>2017-08-25T10:42:39Z</time>
      </trkpt>
      <trkpt lat="44.20825" lon="0.82889">
        <ele>151.07</ele>
        <time>2017-08-25T10:42:47Z</time>
      </trkpt>
      <trkpt lat="44.20811" lon="0.82902">
        <ele>150.269</ele>
        <time>2017-08-25T10:42:54Z</time>
      </trkpt>
      <trkpt lat="44.20797" lon="0.82915">
        <ele>150.169</ele>
        <time>2017-08-25T10:43:00Z</time>
      </trkpt>
      <trkpt lat="44.2078" lon="0.82929">
        <ele>149.42</ele>
        <time>2017-08-25T10:43:06Z</time>
      </trkpt>
      <trkpt lat="44.20771" lon="0.82935">
        <ele>149.98</ele>
        <time>2017-08-25T10:43:11Z</time>
      </trkpt>
      <trkpt lat="44.20768" lon="0.82938">
        <ele>150.471</ele>
        <time>2017-08-25T10:43:14Z</time>
      </trkpt>
      <trkpt lat="44.20767" lon="0.8294">
        <ele>151.792</ele>
        <time>2017-08-25T10:43:21Z</time>
      </trkpt>
      <trkpt lat="44.20763" lon="0.82947">
        <ele>159.682</ele>
        <time>2017-08-25T10:45:33Z</time>
      </trkpt>
      <trkpt lat="44.20757" lon="0.82951">
        <ele>158.17</ele>
        <time>2017-08-25T10:45:40Z</time>
      </trkpt>
      <trkpt lat="44.2075" lon="0.82962">
        <ele>156.671</ele>
        <time>2017-08-25T10:45:47Z</time>
      </trkpt>
      <trkpt lat="44.20752" lon="0.82977">
        <ele>157.102</ele>
        <time>2017-08-25T10:45:54Z</time>
      </trkpt>
      <trkpt lat="44.20754" lon="0.83">
        <ele>157.652</ele>
        <time>2017-08-25T10:46:04Z</time>
      </trkpt>
      <trkpt lat="44.20753" lon="0.8302">
        <ele>157.611</ele>
        <time>2017-08-25T10:46:13Z</time>
      </trkpt>
      <trkpt lat="44.20752" lon="0.83038">
        <ele>158.436</ele>
        <time>2017-08-25T10:46:21Z</time>
      </trkpt>
      <trkpt lat="44.20751" lon="0.83059">
        <ele>159.902</ele>
        <time>2017-08-25T10:46:31Z</time>
      </trkpt>
      <trkpt lat="44.20749" lon="0.83081">
        <ele>161.462</ele>
        <time>2017-08-25T10:46:42Z</time>
      </trkpt>
      <trkpt lat="44.20748" lon="0.83096">
        <ele>162.552</ele>
        <time>2017-08-25T10:46:50Z</time>
      </trkpt>
      <trkpt lat="44.20746" lon="0.83117">
        <ele>164.062</ele>
        <time>2017-08-25T10:47:01Z</time>
      </trkpt>
      <trkpt lat="44.20745" lon="0.83136">
        <ele>165.142</ele>
        <time>2017-08-25T10:47:11Z</time>
      </trkpt>
      <trkpt lat="44.20743" lon="0.83154">
        <ele>165.932</ele>
        <time>2017-08-25T10:47:20Z</time>
      </trkpt>
      <trkpt lat="44.20742" lon="0.83169">
        <ele>166.442</ele>
        <time>2017-08-25T10:47:28Z</time>
      </trkpt>
      <trkpt lat="44.20738" lon="0.83187">
        <ele>166.811</ele>
        <time>2017-08-25T10:47:37Z</time>
      </trkpt>
      <trkpt lat="44.20732" lon="0.83207">
        <ele>168.332</ele>
        <time>2017-08-25T10:47:47Z</time>
      </trkpt>
      <trkpt lat="44.20725" lon="0.8322">
        <ele>169.732</ele>
        <time>2017-08-25T10:47:55Z</time>
      </trkpt>
      <trkpt lat="44.20715" lon="0.83232">
        <ele>170.302</ele>
        <time>2017-08-25T10:48:03Z</time>
      </trkpt>
      <trkpt lat="44.20702" lon="0.83245">
        <ele>170.512</ele>
        <time>2017-08-25T10:48:12Z</time>
      </trkpt>
      <trkpt lat="44.20691" lon="0.83259">
        <ele>171.172</ele>
        <time>2017-08-25T10:48:21Z</time>
      </trkpt>
      <trkpt lat="44.2068" lon="0.83283">
        <ele>172.743</ele>
        <time>2017-08-25T10:48:33Z</time>
      </trkpt>
      <trkpt lat="44.20673" lon="0.83299">
        <ele>173.622</ele>
        <time>2017-08-25T10:48:41Z</time>
      </trkpt>
      <trkpt lat="44.20663" lon="0.83322">
        <ele>174.712</ele>
        <time>2017-08-25T10:48:52Z</time>
      </trkpt>
      <trkpt lat="44.20655" lon="0.83345">
        <ele>175.652</ele>
        <time>2017-08-25T10:49:02Z</time>
      </trkpt>
      <trkpt lat="44.20648" lon="0.83364">
        <ele>175.912</ele>
        <time>2017-08-25T10:49:10Z</time>
      </trkpt>
      <trkpt lat="44.20641" lon="0.83376">
        <ele>175.541</ele>
        <time>2017-08-25T10:49:16Z</time>
      </trkpt>
      <trkpt lat="44.20628" lon="0.83372">
        <ele>174.24</ele>
        <time>2017-08-25T10:49:21Z</time>
      </trkpt>
      <trkpt lat="44.20607" lon="0.83371">
        <ele>172.439</ele>
        <time>2017-08-25T10:49:26Z</time>
      </trkpt>
      <trkpt lat="44.20559" lon="0.83373">
        <ele>170.861</ele>
        <time>2017-08-25T10:49:34Z</time>
      </trkpt>
      <trkpt lat="44.20521" lon="0.83369">
        <ele>169.741</ele>
        <time>2017-08-25T10:49:41Z</time>
      </trkpt>
      <trkpt lat="44.20485" lon="0.83352">
        <ele>168.13</ele>
        <time>2017-08-25T10:49:48Z</time>
      </trkpt>
      <trkpt lat="44.20457" lon="0.8334">
        <ele>167.741</ele>
        <time>2017-08-25T10:49:54Z</time>
      </trkpt>
      <trkpt lat="44.2043" lon="0.83337">
        <ele>167.07</ele>
        <time>2017-08-25T10:50:01Z</time>
      </trkpt>
      <trkpt lat="44.20399" lon="0.83339">
        <ele>168.122</ele>
        <time>2017-08-25T10:50:10Z</time>
      </trkpt>
      <trkpt lat="44.2038" lon="0.83336">
        <ele>169.202</ele>
        <time>2017-08-25T10:50:17Z</time>
      </trkpt>
      <trkpt lat="44.20355" lon="0.83325">
        <ele>170.161</ele>
        <time>2017-08-25T10:50:27Z</time>
      </trkpt>
      <trkpt lat="44.20348" lon="0.83321">
        <ele>170.111</ele>
        <time>2017-08-25T10:50:29Z</time>
      </trkpt>
      <trkpt lat="44.20335" lon="0.83323">
        <ele>169.55</ele>
        <time>2017-08-25T10:50:33Z</time>
      </trkpt>
      <trkpt lat="44.20333" lon="0.83327">
        <ele>169.571</ele>
        <time>2017-08-25T10:50:34Z</time>
      </trkpt>
      <trkpt lat="44.20326" lon="0.83359">
        <ele>169.681</ele>
        <time>2017-08-25T10:50:41Z</time>
      </trkpt>
      <trkpt lat="44.20315" lon="0.83368">
        <ele>169.891</ele>
        <time>2017-08-25T10:50:45Z</time>
      </trkpt>
      <trkpt lat="44.20302" lon="0.83374">
        <ele>168.706</ele>
        <time>2017-08-25T10:50:50Z</time>
      </trkpt>
      <trkpt lat="44.2029" lon="0.83395">
        <ele>165.937</ele>
        <time>2017-08-25T10:50:54Z</time>
      </trkpt>
      <trkpt lat="44.20282" lon="0.83401">
        <ele>164.376</ele>
        <time>2017-08-25T10:50:56Z</time>
      </trkpt>
      <trkpt lat="44.20276" lon="0.834">
        <ele>163.816</ele>
        <time>2017-08-25T10:50:57Z</time>
      </trkpt>
      <trkpt lat="44.20246" lon="0.8339">
        <ele>158.725</ele>
        <time>2017-08-25T10:51:01Z</time>
      </trkpt>
      <trkpt lat="44.20184" lon="0.8338">
        <ele>154.617</ele>
        <time>2017-08-25T10:51:08Z</time>
      </trkpt>
      <trkpt lat="44.20159" lon="0.83376">
        <ele>153.638</ele>
        <time>2017-08-25T10:51:11Z</time>
      </trkpt>
      <trkpt lat="44.20141" lon="0.83383">
        <ele>153.91</ele>
        <time>2017-08-25T10:51:14Z</time>
      </trkpt>
      <trkpt lat="44.20139" lon="0.83394">
        <ele>153.93</ele>
        <time>2017-08-25T10:51:16Z</time>
      </trkpt>
      <trkpt lat="44.20136" lon="0.83415">
        <ele>153.51</ele>
        <time>2017-08-25T10:51:21Z</time>
      </trkpt>
      <trkpt lat="44.20135" lon="0.83418">
        <ele>153.45</ele>
        <time>2017-08-25T10:51:24Z</time>
      </trkpt>
      <trkpt lat="44.20125" lon="0.83422">
        <ele>153.1</ele>
        <time>2017-08-25T10:51:31Z</time>
      </trkpt>
      <trkpt lat="44.20105" lon="0.83431">
        <ele>153.01</ele>
        <time>2017-08-25T10:51:38Z</time>
      </trkpt>
      <trkpt lat="44.20085" lon="0.83441">
        <ele>152.43</ele>
        <time>2017-08-25T10:51:45Z</time>
      </trkpt>
      <trkpt lat="44.20078" lon="0.83445">
        <ele>152.399</ele>
        <time>2017-08-25T10:51:49Z</time>
      </trkpt>
      <trkpt lat="44.20063" lon="0.83458">
        <ele>152.41</ele>
        <time>2017-08-25T10:51:54Z</time>
      </trkpt>
      <trkpt lat="44.20056" lon="0.83464">
        <ele>152.149</ele>
        <time>2017-08-25T10:51:56Z</time>
      </trkpt>
      <trkpt lat="44.20028" lon="0.83493">
        <ele>149.487</ele>
        <time>2017-08-25T10:52:03Z</time>
      </trkpt>
      <trkpt lat="44.19999" lon="0.83521">
        <ele>145.515</ele>
        <time>2017-08-25T10:52:08Z</time>
      </trkpt>
      <trkpt lat="44.19971" lon="0.8356">
        <ele>141.043</ele>
        <time>2017-08-25T10:52:12Z</time>
      </trkpt>
      <trkpt lat="44.19958" lon="0.83581">
        <ele>139.133</ele>
        <time>2017-08-25T10:52:14Z</time>
      </trkpt>
      <trkpt lat="44.19944" lon="0.83612">
        <ele>135.874</ele>
        <time>2017-08-25T10:52:17Z</time>
      </trkpt>
      <trkpt lat="44.19935" lon="0.8363">
        <ele>133.452</ele>
        <time>2017-08-25T10:52:19Z</time>
      </trkpt>
      <trkpt lat="44.19898" lon="0.83651">
        <ele>125.38</ele>
        <time>2017-08-25T10:52:23Z</time>
      </trkpt>
      <trkpt lat="44.19879" lon="0.83653">
        <ele>115.605</ele>
        <time>2017-08-25T10:52:25Z</time>
      </trkpt>
      <trkpt lat="44.19833" lon="0.8367">
        <ele>100.406</ele>
        <time>2017-08-25T10:52:30Z</time>
      </trkpt>
      <trkpt lat="44.19815" lon="0.83675">
        <ele>95.427</ele>
        <time>2017-08-25T10:52:32Z</time>
      </trkpt>
      <trkpt lat="44.198" lon="0.83678">
        <ele>92.822</ele>
        <time>2017-08-25T10:52:34Z</time>
      </trkpt>
      <trkpt lat="44.19787" lon="0.83684">
        <ele>89.386</ele>
        <time>2017-08-25T10:52:38Z</time>
      </trkpt>
      <trkpt lat="44.19788" lon="0.83685">
        <ele>88.149</ele>
        <time>2017-08-25T10:52:44Z</time>
      </trkpt>
      <trkpt lat="44.19787" lon="0.83694">
        <ele>88.758</ele>
        <time>2017-08-25T10:52:54Z</time>
      </trkpt>
      <trkpt lat="44.19783" lon="0.83721">
        <ele>88.768</ele>
        <time>2017-08-25T10:53:00Z</time>
      </trkpt>
      <trkpt lat="44.19776" lon="0.83751">
        <ele>87.547</ele>
        <time>2017-08-25T10:53:06Z</time>
      </trkpt>
      <trkpt lat="44.19775" lon="0.83789">
        <ele>86.668</ele>
        <time>2017-08-25T10:53:13Z</time>
      </trkpt>
      <trkpt lat="44.19778" lon="0.83822">
        <ele>88.259</ele>
        <time>2017-08-25T10:53:20Z</time>
      </trkpt>
      <trkpt lat="44.19781" lon="0.83847">
        <ele>88.779</ele>
        <time>2017-08-25T10:53:27Z</time>
      </trkpt>
      <trkpt lat="44.1978" lon="0.83875">
        <ele>88.998</ele>
        <time>2017-08-25T10:53:34Z</time>
      </trkpt>
      <trkpt lat="44.19777" lon="0.83908">
        <ele>89.338</ele>
        <time>2017-08-25T10:53:42Z</time>
      </trkpt>
      <trkpt lat="44.19775" lon="0.83933">
        <ele>89.719</ele>
        <time>2017-08-25T10:53:48Z</time>
      </trkpt>
      <trkpt lat="44.19774" lon="0.83973">
        <ele>91.039</ele>
        <time>2017-08-25T10:53:57Z</time>
      </trkpt>
      <trkpt lat="44.19773" lon="0.84007">
        <ele>91.609</ele>
        <time>2017-08-25T10:54:03Z</time>
      </trkpt>
      <trkpt lat="44.19771" lon="0.84055">
        <ele>87.385</ele>
        <time>2017-08-25T10:54:09Z</time>
      </trkpt>
      <trkpt lat="44.19769" lon="0.84084">
        <ele>85.385</ele>
        <time>2017-08-25T10:54:12Z</time>
      </trkpt>
      <trkpt lat="44.19756" lon="0.84132">
        <ele>83.397</ele>
        <time>2017-08-25T10:54:18Z</time>
      </trkpt>
      <trkpt lat="44.19743" lon="0.84174">
        <ele>81.768</ele>
        <time>2017-08-25T10:54:25Z</time>
      </trkpt>
      <trkpt lat="44.19736" lon="0.84208">
        <ele>82.209</ele>
        <time>2017-08-25T10:54:31Z</time>
      </trkpt>
      <trkpt lat="44.19734" lon="0.8422">
        <ele>82.018</ele>
        <time>2017-08-25T10:54:33Z</time>
      </trkpt>
      <trkpt lat="44.19727" lon="0.84253">
        <ele>81.268</ele>
        <time>2017-08-25T10:54:39Z</time>
      </trkpt>
      <trkpt lat="44.19717" lon="0.843">
        <ele>81.559</ele>
        <time>2017-08-25T10:54:46Z</time>
      </trkpt>
      <trkpt lat="44.19707" lon="0.8435">
        <ele>82.099</ele>
        <time>2017-08-25T10:54:54Z</time>
      </trkpt>
      <trkpt lat="44.19701" lon="0.84377">
        <ele>81.969</ele>
        <time>2017-08-25T10:54:59Z</time>
      </trkpt>
      <trkpt lat="44.19688" lon="0.84398">
        <ele>81.769</ele>
        <time>2017-08-25T10:55:04Z</time>
      </trkpt>
      <trkpt lat="44.19677" lon="0.84403">
        <ele>80.709</ele>
        <time>2017-08-25T10:55:07Z</time>
      </trkpt>
      <trkpt lat="44.19667" lon="0.84406">
        <ele>79.799</ele>
        <time>2017-08-25T10:55:12Z</time>
      </trkpt>
      <trkpt lat="44.19663" lon="0.84407">
        <ele>79.209</ele>
        <time>2017-08-25T10:55:17Z</time>
      </trkpt>
      <trkpt lat="44.19659" lon="0.84408">
        <ele>78.509</ele>
        <time>2017-08-25T10:55:21Z</time>
      </trkpt>
      <trkpt lat="44.19658" lon="0.84409">
        <ele>78.209</ele>
        <time>2017-08-25T10:55:23Z</time>
      </trkpt>
      <trkpt lat="44.19657" lon="0.8441">
        <ele>78.68</ele>
        <time>2017-08-25T10:55:27Z</time>
      </trkpt>
      <trkpt lat="44.19658" lon="0.84412">
        <ele>76.539</ele>
        <time>2017-08-25T10:56:52Z</time>
      </trkpt>
      <trkpt lat="44.19659" lon="0.84424">
        <ele>76.729</ele>
        <time>2017-08-25T10:56:57Z</time>
      </trkpt>
      <trkpt lat="44.19659" lon="0.84436">
        <ele>76.919</ele>
        <time>2017-08-25T10:57:00Z</time>
      </trkpt>
      <trkpt lat="44.19658" lon="0.84488">
        <ele>77.079</ele>
        <time>2017-08-25T10:57:11Z</time>
      </trkpt>
      <trkpt lat="44.19658" lon="0.84511">
        <ele>78.37</ele>
        <time>2017-08-25T10:57:16Z</time>
      </trkpt>
      <trkpt lat="44.19656" lon="0.84556">
        <ele>80.25</ele>
        <time>2017-08-25T10:57:26Z</time>
      </trkpt>
      <trkpt lat="44.19656" lon="0.84586">
        <ele>81</ele>
        <time>2017-08-25T10:57:33Z</time>
      </trkpt>
      <trkpt lat="44.19656" lon="0.84613">
        <ele>81.68</ele>
        <time>2017-08-25T10:57:40Z</time>
      </trkpt>
      <trkpt lat="44.19663" lon="0.8462">
        <ele>82.199</ele>
        <time>2017-08-25T10:57:45Z</time>
      </trkpt>
      <trkpt lat="44.19664" lon="0.8462">
        <ele>82.45</ele>
        <time>2017-08-25T10:57:46Z</time>
      </trkpt>
      <trkpt lat="44.19673" lon="0.84623">
        <ele>84.261</ele>
        <time>2017-08-25T10:57:55Z</time>
      </trkpt>
      <trkpt lat="44.19681" lon="0.84626">
        <ele>85.64</ele>
        <time>2017-08-25T10:58:02Z</time>
      </trkpt>
      <trkpt lat="44.19692" lon="0.8463">
        <ele>87.381</ele>
        <time>2017-08-25T10:58:13Z</time>
      </trkpt>
      <trkpt lat="44.197" lon="0.84633">
        <ele>88.691</ele>
        <time>2017-08-25T10:58:21Z</time>
      </trkpt>
      <trkpt lat="44.1971" lon="0.84637">
        <ele>90.561</ele>
        <time>2017-08-25T10:58:32Z</time>
      </trkpt>
      <trkpt lat="44.1972" lon="0.84641">
        <ele>92.101</ele>
        <time>2017-08-25T10:58:42Z</time>
      </trkpt>
      <trkpt lat="44.1973" lon="0.84645">
        <ele>93.88</ele>
        <time>2017-08-25T10:58:53Z</time>
      </trkpt>
      <trkpt lat="44.1974" lon="0.84648">
        <ele>95.631</ele>
        <time>2017-08-25T10:59:04Z</time>
      </trkpt>
      <trkpt lat="44.19752" lon="0.84653">
        <ele>97.811</ele>
        <time>2017-08-25T10:59:17Z</time>
      </trkpt>
      <trkpt lat="44.1976" lon="0.84656">
        <ele>99.331</ele>
        <time>2017-08-25T10:59:26Z</time>
      </trkpt>
      <trkpt lat="44.19769" lon="0.8466">
        <ele>100.891</ele>
        <time>2017-08-25T10:59:36Z</time>
      </trkpt>
      <trkpt lat="44.19779" lon="0.84664">
        <ele>102.721</ele>
        <time>2017-08-25T10:59:48Z</time>
      </trkpt>
      <trkpt lat="44.19788" lon="0.84667">
        <ele>104.491</ele>
        <time>2017-08-25T10:59:59Z</time>
      </trkpt>
      <trkpt lat="44.19797" lon="0.8467">
        <ele>105.961</ele>
        <time>2017-08-25T11:00:09Z</time>
      </trkpt>
      <trkpt lat="44.19805" lon="0.84673">
        <ele>107.541</ele>
        <time>2017-08-25T11:00:19Z</time>
      </trkpt>
      <trkpt lat="44.19815" lon="0.84677">
        <ele>109.181</ele>
        <time>2017-08-25T11:00:30Z</time>
      </trkpt>
      <trkpt lat="44.19824" lon="0.8468">
        <ele>110.881</ele>
        <time>2017-08-25T11:00:41Z</time>
      </trkpt>
      <trkpt lat="44.19832" lon="0.84683">
        <ele>112.711</ele>
        <time>2017-08-25T11:00:51Z</time>
      </trkpt>
      <trkpt lat="44.19842" lon="0.84687">
        <ele>114.962</ele>
        <time>2017-08-25T11:01:02Z</time>
      </trkpt>
      <trkpt lat="44.19853" lon="0.84692">
        <ele>117.882</ele>
        <time>2017-08-25T11:01:15Z</time>
      </trkpt>
      <trkpt lat="44.19863" lon="0.84695">
        <ele>119.502</ele>
        <time>2017-08-25T11:01:26Z</time>
      </trkpt>
      <trkpt lat="44.19867" lon="0.84697">
        <ele>120.152</ele>
        <time>2017-08-25T11:01:31Z</time>
      </trkpt>
      <trkpt lat="44.19877" lon="0.847">
        <ele>121.001</ele>
        <time>2017-08-25T11:01:42Z</time>
      </trkpt>
      <trkpt lat="44.19886" lon="0.84705">
        <ele>121.841</ele>
        <time>2017-08-25T11:01:52Z</time>
      </trkpt>
      <trkpt lat="44.19893" lon="0.84716">
        <ele>123.121</ele>
        <time>2017-08-25T11:02:02Z</time>
      </trkpt>
      <trkpt lat="44.19895" lon="0.84729">
        <ele>124.052</ele>
        <time>2017-08-25T11:02:10Z</time>
      </trkpt>
      <trkpt lat="44.19894" lon="0.84743">
        <ele>124.531</ele>
        <time>2017-08-25T11:02:19Z</time>
      </trkpt>
      <trkpt lat="44.19892" lon="0.84757">
        <ele>125.231</ele>
        <time>2017-08-25T11:02:29Z</time>
      </trkpt>
      <trkpt lat="44.19889" lon="0.8477">
        <ele>126.271</ele>
        <time>2017-08-25T11:02:38Z</time>
      </trkpt>
      <trkpt lat="44.19888" lon="0.84785">
        <ele>127.882</ele>
        <time>2017-08-25T11:02:48Z</time>
      </trkpt>
      <trkpt lat="44.19892" lon="0.84796">
        <ele>129.112</ele>
        <time>2017-08-25T11:02:57Z</time>
      </trkpt>
      <trkpt lat="44.19897" lon="0.84803">
        <ele>130.232</ele>
        <time>2017-08-25T11:03:04Z</time>
      </trkpt>
      <trkpt lat="44.19904" lon="0.84813">
        <ele>131.322</ele>
        <time>2017-08-25T11:03:13Z</time>
      </trkpt>
      <trkpt lat="44.19909" lon="0.84827">
        <ele>132.091</ele>
        <time>2017-08-25T11:03:21Z</time>
      </trkpt>
      <trkpt lat="44.19911" lon="0.84847">
        <ele>132.351</ele>
        <time>2017-08-25T11:03:30Z</time>
      </trkpt>
      <trkpt lat="44.19911" lon="0.84873">
        <ele>132.681</ele>
        <time>2017-08-25T11:03:38Z</time>
      </trkpt>
      <trkpt lat="44.1991" lon="0.84898">
        <ele>132.381</ele>
        <time>2017-08-25T11:03:45Z</time>
      </trkpt>
      <trkpt lat="44.19909" lon="0.84928">
        <ele>132.491</ele>
        <time>2017-08-25T11:03:53Z</time>
      </trkpt>
      <trkpt lat="44.19909" lon="0.84963">
        <ele>133.722</ele>
        <time>2017-08-25T11:04:03Z</time>
      </trkpt>
      <trkpt lat="44.19908" lon="0.84981">
        <ele>133.52</ele>
        <time>2017-08-25T11:04:10Z</time>
      </trkpt>
      <trkpt lat="44.19907" lon="0.84997">
        <ele>133.43</ele>
        <time>2017-08-25T11:04:17Z</time>
      </trkpt>
      <trkpt lat="44.19907" lon="0.85011">
        <ele>132.69</ele>
        <time>2017-08-25T11:04:23Z</time>
      </trkpt>
      <trkpt lat="44.19904" lon="0.85012">
        <ele>127.781</ele>
        <time>2017-08-25T11:05:26Z</time>
      </trkpt>
      <trkpt lat="44.19914" lon="0.85027">
        <ele>125.318</ele>
        <time>2017-08-25T11:05:31Z</time>
      </trkpt>
      <trkpt lat="44.19933" lon="0.85056">
        <ele>121.796</ele>
        <time>2017-08-25T11:05:35Z</time>
      </trkpt>
      <trkpt lat="44.19969" lon="0.85115">
        <ele>119.44</ele>
        <time>2017-08-25T11:05:42Z</time>
      </trkpt>
      <trkpt lat="44.19989" lon="0.85145">
        <ele>119.822</ele>
        <time>2017-08-25T11:05:47Z</time>
      </trkpt>
      <trkpt lat="44.2001" lon="0.85176">
        <ele>120.882</ele>
        <time>2017-08-25T11:05:54Z</time>
      </trkpt>
      <trkpt lat="44.20029" lon="0.85205">
        <ele>122.173</ele>
        <time>2017-08-25T11:06:02Z</time>
      </trkpt>
      <trkpt lat="44.20051" lon="0.85232">
        <ele>123.713</ele>
        <time>2017-08-25T11:06:11Z</time>
      </trkpt>
      <trkpt lat="44.20074" lon="0.85247">
        <ele>125.754</ele>
        <time>2017-08-25T11:06:20Z</time>
      </trkpt>
      <trkpt lat="44.20101" lon="0.85259">
        <ele>127.827</ele>
        <time>2017-08-25T11:06:31Z</time>
      </trkpt>
      <trkpt lat="44.2012" lon="0.85267">
        <ele>128.763</ele>
        <time>2017-08-25T11:06:39Z</time>
      </trkpt>
      <trkpt lat="44.20144" lon="0.85276">
        <ele>129.713</ele>
        <time>2017-08-25T11:06:49Z</time>
      </trkpt>
      <trkpt lat="44.20173" lon="0.8529">
        <ele>129.853</ele>
        <time>2017-08-25T11:07:01Z</time>
      </trkpt>
      <trkpt lat="44.202" lon="0.85304">
        <ele>130.253</ele>
        <time>2017-08-25T11:07:12Z</time>
      </trkpt>
      <trkpt lat="44.20225" lon="0.85317">
        <ele>130.983</ele>
        <time>2017-08-25T11:07:22Z</time>
      </trkpt>
      <trkpt lat="44.2025" lon="0.85328">
        <ele>131.383</ele>
        <time>2017-08-25T11:07:32Z</time>
      </trkpt>
      <trkpt lat="44.20275" lon="0.85339">
        <ele>132.153</ele>
        <time>2017-08-25T11:07:42Z</time>
      </trkpt>
      <trkpt lat="44.20295" lon="0.85338">
        <ele>132.564</ele>
        <time>2017-08-25T11:07:50Z</time>
      </trkpt>
      <trkpt lat="44.20321" lon="0.85332">
        <ele>133.585</ele>
        <time>2017-08-25T11:08:02Z</time>
      </trkpt>
      <trkpt lat="44.20341" lon="0.8533">
        <ele>135.085</ele>
        <time>2017-08-25T11:08:13Z</time>
      </trkpt>
      <trkpt lat="44.20359" lon="0.85333">
        <ele>136.575</ele>
        <time>2017-08-25T11:08:24Z</time>
      </trkpt>
      <trkpt lat="44.20367" lon="0.85334">
        <ele>137.345</ele>
        <time>2017-08-25T11:08:30Z</time>
      </trkpt>
      <trkpt lat="44.20377" lon="0.85337">
        <ele>138.465</ele>
        <time>2017-08-25T11:08:38Z</time>
      </trkpt>
      <trkpt lat="44.20388" lon="0.85342">
        <ele>139.434</ele>
        <time>2017-08-25T11:08:47Z</time>
      </trkpt>
      <trkpt lat="44.20401" lon="0.85349">
        <ele>142.535</ele>
        <time>2017-08-25T11:08:58Z</time>
      </trkpt>
      <trkpt lat="44.20414" lon="0.85358">
        <ele>144.265</ele>
        <time>2017-08-25T11:09:09Z</time>
      </trkpt>
      <trkpt lat="44.20427" lon="0.85364">
        <ele>144.664</ele>
        <time>2017-08-25T11:09:17Z</time>
      </trkpt>
      <trkpt lat="44.20448" lon="0.8537">
        <ele>144.094</ele>
        <time>2017-08-25T11:09:26Z</time>
      </trkpt>
      <trkpt lat="44.20467" lon="0.85376">
        <ele>143.814</ele>
        <time>2017-08-25T11:09:34Z</time>
      </trkpt>
      <trkpt lat="44.20489" lon="0.85385">
        <ele>144.144</ele>
        <time>2017-08-25T11:09:44Z</time>
      </trkpt>
      <trkpt lat="44.20509" lon="0.85396">
        <ele>144.555</ele>
        <time>2017-08-25T11:09:54Z</time>
      </trkpt>
      <trkpt lat="44.20533" lon="0.85407">
        <ele>146.076</ele>
        <time>2017-08-25T11:10:06Z</time>
      </trkpt>
      <trkpt lat="44.20552" lon="0.85414">
        <ele>148.856</ele>
        <time>2017-08-25T11:10:17Z</time>
      </trkpt>
      <trkpt lat="44.20567" lon="0.85418">
        <ele>151.207</ele>
        <time>2017-08-25T11:10:26Z</time>
      </trkpt>
      <trkpt lat="44.20581" lon="0.85415">
        <ele>152.971</ele>
        <time>2017-08-25T11:10:34Z</time>
      </trkpt>
      <trkpt lat="44.20585" lon="0.85415">
        <ele>153.526</ele>
        <time>2017-08-25T11:10:36Z</time>
      </trkpt>
      <trkpt lat="44.20589" lon="0.85409">
        <ele>154.016</ele>
        <time>2017-08-25T11:10:40Z</time>
      </trkpt>
      <trkpt lat="44.20589" lon="0.85404">
        <ele>154.595</ele>
        <time>2017-08-25T11:10:46Z</time>
      </trkpt>
      <trkpt lat="44.20582" lon="0.85401">
        <ele>158.394</ele>
        <time>2017-08-25T11:11:55Z</time>
      </trkpt>
      <trkpt lat="44.20582" lon="0.854">
        <ele>156.124</ele>
        <time>2017-08-25T11:12:13Z</time>
      </trkpt>
      <trkpt lat="44.2058" lon="0.85401">
        <ele>155.764</ele>
        <time>2017-08-25T11:12:15Z</time>
      </trkpt>
      <trkpt lat="44.2058" lon="0.85407">
        <ele>155.134</ele>
        <time>2017-08-25T11:12:21Z</time>
      </trkpt>
      <trkpt lat="44.20584" lon="0.85407">
        <ele>155.105</ele>
        <time>2017-08-25T11:12:27Z</time>
      </trkpt>
      <trkpt lat="44.20584" lon="0.85408">
        <ele>148.535</ele>
        <time>2017-08-25T11:14:18Z</time>
      </trkpt>
      <trkpt lat="44.20595" lon="0.85411">
        <ele>149.916</ele>
        <time>2017-08-25T11:14:26Z</time>
      </trkpt>
      <trkpt lat="44.20605" lon="0.8541">
        <ele>151.937</ele>
        <time>2017-08-25T11:14:33Z</time>
      </trkpt>
      <trkpt lat="44.2062" lon="0.85407">
        <ele>155.397</ele>
        <time>2017-08-25T11:14:42Z</time>
      </trkpt>
      <trkpt lat="44.20635" lon="0.85406">
        <ele>159.018</ele>
        <time>2017-08-25T11:14:51Z</time>
      </trkpt>
      <trkpt lat="44.20647" lon="0.85404">
        <ele>160.357</ele>
        <time>2017-08-25T11:14:58Z</time>
      </trkpt>
      <trkpt lat="44.20662" lon="0.85402">
        <ele>162.078</ele>
        <time>2017-08-25T11:15:05Z</time>
      </trkpt>
      <trkpt lat="44.20677" lon="0.85408">
        <ele>164.418</ele>
        <time>2017-08-25T11:15:11Z</time>
      </trkpt>
      <trkpt lat="44.20688" lon="0.85416">
        <ele>165.347</ele>
        <time>2017-08-25T11:15:19Z</time>
      </trkpt>
      <trkpt lat="44.207" lon="0.85423">
        <ele>166.387</ele>
        <time>2017-08-25T11:15:28Z</time>
      </trkpt>
      <trkpt lat="44.20713" lon="0.85429">
        <ele>166.887</ele>
        <time>2017-08-25T11:15:37Z</time>
      </trkpt>
      <trkpt lat="44.2073" lon="0.85434">
        <ele>168.717</ele>
        <time>2017-08-25T11:15:48Z</time>
      </trkpt>
      <trkpt lat="44.20741" lon="0.85437">
        <ele>169.706</ele>
        <time>2017-08-25T11:15:55Z</time>
      </trkpt>
      <trkpt lat="44.20759" lon="0.85441">
        <ele>170.276</ele>
        <time>2017-08-25T11:16:05Z</time>
      </trkpt>
      <trkpt lat="44.20775" lon="0.85442">
        <ele>171.568</ele>
        <time>2017-08-25T11:16:13Z</time>
      </trkpt>
      <trkpt lat="44.2079" lon="0.8544">
        <ele>173.168</ele>
        <time>2017-08-25T11:16:21Z</time>
      </trkpt>
      <trkpt lat="44.20807" lon="0.85437">
        <ele>174.677</ele>
        <time>2017-08-25T11:16:30Z</time>
      </trkpt>
      <trkpt lat="44.20826" lon="0.85434">
        <ele>175.898</ele>
        <time>2017-08-25T11:16:40Z</time>
      </trkpt>
      <trkpt lat="44.20845" lon="0.8543">
        <ele>174.666</ele>
        <time>2017-08-25T11:16:50Z</time>
      </trkpt>
      <trkpt lat="44.20868" lon="0.85427">
        <ele>172.156</ele>
        <time>2017-08-25T11:17:03Z</time>
      </trkpt>
      <trkpt lat="44.20891" lon="0.85425">
        <ele>171.506</ele>
        <time>2017-08-25T11:17:14Z</time>
      </trkpt>
      <trkpt lat="44.20916" lon="0.85425">
        <ele>171.057</ele>
        <time>2017-08-25T11:17:25Z</time>
      </trkpt>
      <trkpt lat="44.20942" lon="0.85427">
        <ele>170.897</ele>
        <time>2017-08-25T11:17:37Z</time>
      </trkpt>
      <trkpt lat="44.20972" lon="0.85433">
        <ele>171.687</ele>
        <time>2017-08-25T11:17:51Z</time>
      </trkpt>
      <trkpt lat="44.20994" lon="0.85438">
        <ele>172.747</ele>
        <time>2017-08-25T11:18:01Z</time>
      </trkpt>
      <trkpt lat="44.21016" lon="0.8544">
        <ele>173.918</ele>
        <time>2017-08-25T11:18:11Z</time>
      </trkpt>
      <trkpt lat="44.21039" lon="0.85442">
        <ele>175.098</ele>
        <time>2017-08-25T11:18:22Z</time>
      </trkpt>
      <trkpt lat="44.21057" lon="0.85447">
        <ele>176.788</ele>
        <time>2017-08-25T11:18:31Z</time>
      </trkpt>
      <trkpt lat="44.21073" lon="0.85451">
        <ele>178.228</ele>
        <time>2017-08-25T11:18:39Z</time>
      </trkpt>
      <trkpt lat="44.21094" lon="0.85452">
        <ele>179.838</ele>
        <time>2017-08-25T11:18:49Z</time>
      </trkpt>
      <trkpt lat="44.21117" lon="0.85451">
        <ele>181.408</ele>
        <time>2017-08-25T11:19:00Z</time>
      </trkpt>
      <trkpt lat="44.21126" lon="0.85452">
        <ele>181.687</ele>
        <time>2017-08-25T11:19:06Z</time>
      </trkpt>
      <trkpt lat="44.21127" lon="0.85452">
        <ele>181.688</ele>
        <time>2017-08-25T11:19:08Z</time>
      </trkpt>
      <trkpt lat="44.21137" lon="0.85441">
        <ele>181.988</ele>
        <time>2017-08-25T11:19:14Z</time>
      </trkpt>
      <trkpt lat="44.21142" lon="0.85437">
        <ele>182.829</ele>
        <time>2017-08-25T11:19:16Z</time>
      </trkpt>
      <trkpt lat="44.21179" lon="0.85414">
        <ele>189.431</ele>
        <time>2017-08-25T11:19:27Z</time>
      </trkpt>
      <trkpt lat="44.21214" lon="0.85392">
        <ele>199.973</ele>
        <time>2017-08-25T11:19:38Z</time>
      </trkpt>
      <trkpt lat="44.21243" lon="0.85374">
        <ele>209.213</ele>
        <time>2017-08-25T11:19:47Z</time>
      </trkpt>
      <trkpt lat="44.21256" lon="0.85356">
        <ele>200.231</ele>
        <time>2017-08-25T11:19:52Z</time>
      </trkpt>
      <trkpt lat="44.21268" lon="0.85338">
        <ele>194.748</ele>
        <time>2017-08-25T11:19:57Z</time>
      </trkpt>
      <trkpt lat="44.21287" lon="0.85308">
        <ele>191.527</ele>
        <time>2017-08-25T11:20:04Z</time>
      </trkpt>
      <trkpt lat="44.21307" lon="0.85281">
        <ele>189.517</ele>
        <time>2017-08-25T11:20:11Z</time>
      </trkpt>
      <trkpt lat="44.21331" lon="0.85243">
        <ele>188.478</ele>
        <time>2017-08-25T11:20:19Z</time>
      </trkpt>
      <trkpt lat="44.21347" lon="0.85205">
        <ele>188.618</ele>
        <time>2017-08-25T11:20:27Z</time>
      </trkpt>
      <trkpt lat="44.21359" lon="0.85176">
        <ele>188.218</ele>
        <time>2017-08-25T11:20:34Z</time>
      </trkpt>
      <trkpt lat="44.21381" lon="0.85146">
        <ele>188.228</ele>
        <time>2017-08-25T11:20:42Z</time>
      </trkpt>
      <trkpt lat="44.21417" lon="0.85103">
        <ele>186.737</ele>
        <time>2017-08-25T11:20:53Z</time>
      </trkpt>
      <trkpt lat="44.2144" lon="0.85067">
        <ele>184.826</ele>
        <time>2017-08-25T11:20:59Z</time>
      </trkpt>
      <trkpt lat="44.21472" lon="0.85019">
        <ele>184.088</ele>
        <time>2017-08-25T11:21:06Z</time>
      </trkpt>
      <trkpt lat="44.2148" lon="0.85008">
        <ele>184.078</ele>
        <time>2017-08-25T11:21:08Z</time>
      </trkpt>
      <trkpt lat="44.21491" lon="0.85">
        <ele>184.098</ele>
        <time>2017-08-25T11:21:11Z</time>
      </trkpt>
      <trkpt lat="44.21489" lon="0.85008">
        <ele>183.607</ele>
        <time>2017-08-25T11:21:13Z</time>
      </trkpt>
      <trkpt lat="44.21487" lon="0.85024">
        <ele>182.186</ele>
        <time>2017-08-25T11:21:16Z</time>
      </trkpt>
      <trkpt lat="44.21497" lon="0.85044">
        <ele>180.613</ele>
        <time>2017-08-25T11:21:18Z</time>
      </trkpt>
      <trkpt lat="44.21512" lon="0.85081">
        <ele>177.163</ele>
        <time>2017-08-25T11:21:21Z</time>
      </trkpt>
      <trkpt lat="44.21514" lon="0.85096">
        <ele>176.464</ele>
        <time>2017-08-25T11:21:22Z</time>
      </trkpt>
      <trkpt lat="44.2152" lon="0.85136">
        <ele>175.026</ele>
        <time>2017-08-25T11:21:25Z</time>
      </trkpt>
      <trkpt lat="44.21531" lon="0.852">
        <ele>170.083</ele>
        <time>2017-08-25T11:21:30Z</time>
      </trkpt>
      <trkpt lat="44.2155" lon="0.85234">
        <ele>169.369</ele>
        <time>2017-08-25T11:21:34Z</time>
      </trkpt>
      <trkpt lat="44.21561" lon="0.85237">
        <ele>169.71</ele>
        <time>2017-08-25T11:21:36Z</time>
      </trkpt>
      <trkpt lat="44.21574" lon="0.85237">
        <ele>170.149</ele>
        <time>2017-08-25T11:21:41Z</time>
      </trkpt>
      <trkpt lat="44.21593" lon="0.85238">
        <ele>170.179</ele>
        <time>2017-08-25T11:21:47Z</time>
      </trkpt>
      <trkpt lat="44.21631" lon="0.8524">
        <ele>169.378</ele>
        <time>2017-08-25T11:21:59Z</time>
      </trkpt>
      <trkpt lat="44.21658" lon="0.85244">
        <ele>169.41</ele>
        <time>2017-08-25T11:22:08Z</time>
      </trkpt>
      <trkpt lat="44.2167" lon="0.85257">
        <ele>169.73</ele>
        <time>2017-08-25T11:22:13Z</time>
      </trkpt>
      <trkpt lat="44.21694" lon="0.85286">
        <ele>170.03</ele>
        <time>2017-08-25T11:22:24Z</time>
      </trkpt>
      <trkpt lat="44.21706" lon="0.85297">
        <ele>170.511</ele>
        <time>2017-08-25T11:22:29Z</time>
      </trkpt>
      <trkpt lat="44.21715" lon="0.85289">
        <ele>170.94</ele>
        <time>2017-08-25T11:22:33Z</time>
      </trkpt>
      <trkpt lat="44.21728" lon="0.85256">
        <ele>171.72</ele>
        <time>2017-08-25T11:22:41Z</time>
      </trkpt>
      <trkpt lat="44.21739" lon="0.85224">
        <ele>172.81</ele>
        <time>2017-08-25T11:22:48Z</time>
      </trkpt>
      <trkpt lat="44.21752" lon="0.85191">
        <ele>173.17</ele>
        <time>2017-08-25T11:22:55Z</time>
      </trkpt>
      <trkpt lat="44.21765" lon="0.85157">
        <ele>173.07</ele>
        <time>2017-08-25T11:23:02Z</time>
      </trkpt>
      <trkpt lat="44.21784" lon="0.85107">
        <ele>173.06</ele>
        <time>2017-08-25T11:23:11Z</time>
      </trkpt>
      <trkpt lat="44.21799" lon="0.85066">
        <ele>173.18</ele>
        <time>2017-08-25T11:23:18Z</time>
      </trkpt>
      <trkpt lat="44.21815" lon="0.85024">
        <ele>173.02</ele>
        <time>2017-08-25T11:23:25Z</time>
      </trkpt>
      <trkpt lat="44.21833" lon="0.84976">
        <ele>172.6</ele>
        <time>2017-08-25T11:23:33Z</time>
      </trkpt>
      <trkpt lat="44.21857" lon="0.84921">
        <ele>171.199</ele>
        <time>2017-08-25T11:23:42Z</time>
      </trkpt>
      <trkpt lat="44.21883" lon="0.84868">
        <ele>168.468</ele>
        <time>2017-08-25T11:23:50Z</time>
      </trkpt>
      <trkpt lat="44.21894" lon="0.84847">
        <ele>167.448</ele>
        <time>2017-08-25T11:23:53Z</time>
      </trkpt>
      <trkpt lat="44.21896" lon="0.84824">
        <ele>167.65</ele>
        <time>2017-08-25T11:23:56Z</time>
      </trkpt>
      <trkpt lat="44.21894" lon="0.84817">
        <ele>167.781</ele>
        <time>2017-08-25T11:23:57Z</time>
      </trkpt>
      <trkpt lat="44.21885" lon="0.84792">
        <ele>168.541</ele>
        <time>2017-08-25T11:24:03Z</time>
      </trkpt>
      <trkpt lat="44.21882" lon="0.84785">
        <ele>168.761</ele>
        <time>2017-08-25T11:24:08Z</time>
      </trkpt>
      <trkpt lat="44.21879" lon="0.84777">
        <ele>168.78</ele>
        <time>2017-08-25T11:24:13Z</time>
      </trkpt>
      <trkpt lat="44.21868" lon="0.84755">
        <ele>168.8</ele>
        <time>2017-08-25T11:24:20Z</time>
      </trkpt>
      <trkpt lat="44.21852" lon="0.84724">
        <ele>168.099</ele>
        <time>2017-08-25T11:24:28Z</time>
      </trkpt>
      <trkpt lat="44.21844" lon="0.84707">
        <ele>167.9</ele>
        <time>2017-08-25T11:24:33Z</time>
      </trkpt>
      <trkpt lat="44.2185" lon="0.84693">
        <ele>167.58</ele>
        <time>2017-08-25T11:24:37Z</time>
      </trkpt>
      <trkpt lat="44.21857" lon="0.84683">
        <ele>166.528</ele>
        <time>2017-08-25T11:24:39Z</time>
      </trkpt>
      <trkpt lat="44.21903" lon="0.84627">
        <ele>163.288</ele>
        <time>2017-08-25T11:24:49Z</time>
      </trkpt>
      <trkpt lat="44.21942" lon="0.84582">
        <ele>160.386</ele>
        <time>2017-08-25T11:24:56Z</time>
      </trkpt>
      <trkpt lat="44.21972" lon="0.84558">
        <ele>158.928</ele>
        <time>2017-08-25T11:25:00Z</time>
      </trkpt>
      <trkpt lat="44.21993" lon="0.84555">
        <ele>158.569</ele>
        <time>2017-08-25T11:25:04Z</time>
      </trkpt>
      <trkpt lat="44.22006" lon="0.84554">
        <ele>157.668</ele>
        <time>2017-08-25T11:25:08Z</time>
      </trkpt>
      <trkpt lat="44.22005" lon="0.84547">
        <ele>157.599</ele>
        <time>2017-08-25T11:25:10Z</time>
      </trkpt>
      <trkpt lat="44.22002" lon="0.8454">
        <ele>158.04</ele>
        <time>2017-08-25T11:25:16Z</time>
      </trkpt>
      <trkpt lat="44.22002" lon="0.8454">
        <ele>158.092</ele>
        <time>2017-08-25T11:25:17Z</time>
      </trkpt>
    </trkseg>
  </trk>
</gpx>